<?xml version="1.0" encoding="UTF-8" standalone="no" ?>
<gpx xmlns="http://www.topografix.com/GPX/1/1" xmlns:xsi="http://www.w3.org/2001/XMLSchema-instance" xsi:schemaLocation="http://www.topografix.com/GPX/1/1 http://www.topografix.com/GPX/1/1/gpx.xsd" version="1.1" creator="VisuGPX - https://www.visugpx.com">
  <metadata>
    <name>83-M-Lorgues </name>
    <desc><![CDATA[83-M-Lorgues : Château Mentone 
2020-03-04]]></desc>
  </metadata>
  <trk>
    <name><![CDATA[Lorgues Chateau Mentone 11km D 230M F 1 D3H30 V 10KM D 0920 1850]]></name>
    <trkseg>
      <trkpt lat="43.50623" lon="6.3145">
        <ele>271.5</ele>
        <time>2020-03-04T12:49:27Z</time>
      </trkpt>
      <trkpt lat="43.50623" lon="6.3145">
        <ele>271.5</ele>
        <time>2020-03-04T12:49:28Z</time>
      </trkpt>
      <trkpt lat="43.50623" lon="6.31463">
        <ele>271.6</ele>
        <time>2020-03-04T12:50:10Z</time>
      </trkpt>
      <trkpt lat="43.50601" lon="6.3164">
        <ele>279</ele>
        <time>2020-03-04T12:53:52Z</time>
      </trkpt>
      <trkpt lat="43.50602" lon="6.31653">
        <ele>285.1</ele>
        <time>2020-03-04T12:54:07Z</time>
      </trkpt>
      <trkpt lat="43.50606" lon="6.31665">
        <ele>286.1</ele>
        <time>2020-03-04T12:54:23Z</time>
      </trkpt>
      <trkpt lat="43.50607" lon="6.31678">
        <ele>287.7</ele>
        <time>2020-03-04T12:54:37Z</time>
      </trkpt>
      <trkpt lat="43.50603" lon="6.31692">
        <ele>287.2</ele>
        <time>2020-03-04T12:54:49Z</time>
      </trkpt>
      <trkpt lat="43.50603" lon="6.31706">
        <ele>288.6</ele>
        <time>2020-03-04T12:55:02Z</time>
      </trkpt>
      <trkpt lat="43.50609" lon="6.31715">
        <ele>290.1</ele>
        <time>2020-03-04T12:55:14Z</time>
      </trkpt>
      <trkpt lat="43.50618" lon="6.31715">
        <ele>292.2</ele>
        <time>2020-03-04T12:55:28Z</time>
      </trkpt>
      <trkpt lat="43.50628" lon="6.31713">
        <ele>291.5</ele>
        <time>2020-03-04T12:55:48Z</time>
      </trkpt>
      <trkpt lat="43.50637" lon="6.31714">
        <ele>295.1</ele>
        <time>2020-03-04T12:56:00Z</time>
      </trkpt>
      <trkpt lat="43.50646" lon="6.31717">
        <ele>297</ele>
        <time>2020-03-04T12:56:15Z</time>
      </trkpt>
      <trkpt lat="43.50655" lon="6.31718">
        <ele>297.8</ele>
        <time>2020-03-04T12:56:22Z</time>
      </trkpt>
      <trkpt lat="43.50663" lon="6.31724">
        <ele>298.3</ele>
        <time>2020-03-04T12:56:34Z</time>
      </trkpt>
      <trkpt lat="43.50672" lon="6.31728">
        <ele>299.3</ele>
        <time>2020-03-04T12:56:45Z</time>
      </trkpt>
      <trkpt lat="43.50682" lon="6.31729">
        <ele>299.4</ele>
        <time>2020-03-04T12:56:57Z</time>
      </trkpt>
      <trkpt lat="43.50691" lon="6.31731">
        <ele>300.7</ele>
        <time>2020-03-04T12:57:10Z</time>
      </trkpt>
      <trkpt lat="43.50701" lon="6.31733">
        <ele>301.6</ele>
        <time>2020-03-04T12:57:23Z</time>
      </trkpt>
      <trkpt lat="43.50709" lon="6.31739">
        <ele>302.1</ele>
        <time>2020-03-04T12:57:35Z</time>
      </trkpt>
      <trkpt lat="43.50713" lon="6.31751">
        <ele>302.7</ele>
        <time>2020-03-04T12:57:47Z</time>
      </trkpt>
      <trkpt lat="43.50721" lon="6.31759">
        <ele>303.2</ele>
        <time>2020-03-04T12:58:00Z</time>
      </trkpt>
      <trkpt lat="43.50727" lon="6.31769">
        <ele>303.7</ele>
        <time>2020-03-04T12:58:15Z</time>
      </trkpt>
      <trkpt lat="43.50735" lon="6.31776">
        <ele>304.4</ele>
        <time>2020-03-04T12:58:27Z</time>
      </trkpt>
      <trkpt lat="43.5074" lon="6.31788">
        <ele>304.7</ele>
        <time>2020-03-04T12:58:38Z</time>
      </trkpt>
      <trkpt lat="43.50746" lon="6.31798">
        <ele>305.3</ele>
        <time>2020-03-04T12:58:49Z</time>
      </trkpt>
      <trkpt lat="43.50752" lon="6.3181">
        <ele>305.9</ele>
        <time>2020-03-04T12:59:02Z</time>
      </trkpt>
      <trkpt lat="43.50756" lon="6.31821">
        <ele>306.6</ele>
        <time>2020-03-04T12:59:18Z</time>
      </trkpt>
      <trkpt lat="43.50762" lon="6.3183">
        <ele>307</ele>
        <time>2020-03-04T12:59:31Z</time>
      </trkpt>
      <trkpt lat="43.50768" lon="6.3184">
        <ele>308.1</ele>
        <time>2020-03-04T12:59:46Z</time>
      </trkpt>
      <trkpt lat="43.50773" lon="6.3185">
        <ele>309</ele>
        <time>2020-03-04T12:59:58Z</time>
      </trkpt>
      <trkpt lat="43.50782" lon="6.31856">
        <ele>309.9</ele>
        <time>2020-03-04T13:00:09Z</time>
      </trkpt>
      <trkpt lat="43.50789" lon="6.31863">
        <ele>310.6</ele>
        <time>2020-03-04T13:00:21Z</time>
      </trkpt>
      <trkpt lat="43.50798" lon="6.31868">
        <ele>311.5</ele>
        <time>2020-03-04T13:00:34Z</time>
      </trkpt>
      <trkpt lat="43.50806" lon="6.31873">
        <ele>312.6</ele>
        <time>2020-03-04T13:00:48Z</time>
      </trkpt>
      <trkpt lat="43.50815" lon="6.31878">
        <ele>313.2</ele>
        <time>2020-03-04T13:00:57Z</time>
      </trkpt>
      <trkpt lat="43.50823" lon="6.31886">
        <ele>313.8</ele>
        <time>2020-03-04T13:01:09Z</time>
      </trkpt>
      <trkpt lat="43.50831" lon="6.31894">
        <ele>314.4</ele>
        <time>2020-03-04T13:01:20Z</time>
      </trkpt>
      <trkpt lat="43.50841" lon="6.31897">
        <ele>315</ele>
        <time>2020-03-04T13:01:30Z</time>
      </trkpt>
      <trkpt lat="43.5085" lon="6.31902">
        <ele>315.4</ele>
        <time>2020-03-04T13:01:40Z</time>
      </trkpt>
      <trkpt lat="43.50859" lon="6.31902">
        <ele>316</ele>
        <time>2020-03-04T13:01:50Z</time>
      </trkpt>
      <trkpt lat="43.50868" lon="6.31902">
        <ele>316.5</ele>
        <time>2020-03-04T13:01:58Z</time>
      </trkpt>
      <trkpt lat="43.50878" lon="6.31904">
        <ele>317</ele>
        <time>2020-03-04T13:02:09Z</time>
      </trkpt>
      <trkpt lat="43.50887" lon="6.31905">
        <ele>317.4</ele>
        <time>2020-03-04T13:02:18Z</time>
      </trkpt>
      <trkpt lat="43.50897" lon="6.31907">
        <ele>317.8</ele>
        <time>2020-03-04T13:02:27Z</time>
      </trkpt>
      <trkpt lat="43.50907" lon="6.3191">
        <ele>318.1</ele>
        <time>2020-03-04T13:02:36Z</time>
      </trkpt>
      <trkpt lat="43.50916" lon="6.31908">
        <ele>318.2</ele>
        <time>2020-03-04T13:02:46Z</time>
      </trkpt>
      <trkpt lat="43.50926" lon="6.31909">
        <ele>318.2</ele>
        <time>2020-03-04T13:02:56Z</time>
      </trkpt>
      <trkpt lat="43.50936" lon="6.31911">
        <ele>318.3</ele>
        <time>2020-03-04T13:03:05Z</time>
      </trkpt>
      <trkpt lat="43.50945" lon="6.31913">
        <ele>318.1</ele>
        <time>2020-03-04T13:03:13Z</time>
      </trkpt>
      <trkpt lat="43.50954" lon="6.31917">
        <ele>317.9</ele>
        <time>2020-03-04T13:03:23Z</time>
      </trkpt>
      <trkpt lat="43.50963" lon="6.31919">
        <ele>317.7</ele>
        <time>2020-03-04T13:03:33Z</time>
      </trkpt>
      <trkpt lat="43.50972" lon="6.3192">
        <ele>317.8</ele>
        <time>2020-03-04T13:03:43Z</time>
      </trkpt>
      <trkpt lat="43.50981" lon="6.31925">
        <ele>318.2</ele>
        <time>2020-03-04T13:03:57Z</time>
      </trkpt>
      <trkpt lat="43.50989" lon="6.3192">
        <ele>317.9</ele>
        <time>2020-03-04T13:04:25Z</time>
      </trkpt>
      <trkpt lat="43.50992" lon="6.31906">
        <ele>318</ele>
        <time>2020-03-04T13:04:43Z</time>
      </trkpt>
      <trkpt lat="43.50993" lon="6.31893">
        <ele>318.4</ele>
        <time>2020-03-04T13:04:56Z</time>
      </trkpt>
      <trkpt lat="43.50997" lon="6.31881">
        <ele>318.7</ele>
        <time>2020-03-04T13:05:05Z</time>
      </trkpt>
      <trkpt lat="43.50999" lon="6.31869">
        <ele>318.7</ele>
        <time>2020-03-04T13:05:15Z</time>
      </trkpt>
      <trkpt lat="43.50999" lon="6.31855">
        <ele>319</ele>
        <time>2020-03-04T13:05:27Z</time>
      </trkpt>
      <trkpt lat="43.50999" lon="6.31839">
        <ele>319</ele>
        <time>2020-03-04T13:05:38Z</time>
      </trkpt>
      <trkpt lat="43.51" lon="6.31825">
        <ele>319</ele>
        <time>2020-03-04T13:05:47Z</time>
      </trkpt>
      <trkpt lat="43.51001" lon="6.31811">
        <ele>318.8</ele>
        <time>2020-03-04T13:05:56Z</time>
      </trkpt>
      <trkpt lat="43.51001" lon="6.31795">
        <ele>318</ele>
        <time>2020-03-04T13:06:06Z</time>
      </trkpt>
      <trkpt lat="43.51004" lon="6.31783">
        <ele>318.5</ele>
        <time>2020-03-04T13:06:15Z</time>
      </trkpt>
      <trkpt lat="43.51005" lon="6.31769">
        <ele>318</ele>
        <time>2020-03-04T13:06:23Z</time>
      </trkpt>
      <trkpt lat="43.51007" lon="6.31753">
        <ele>317.6</ele>
        <time>2020-03-04T13:06:32Z</time>
      </trkpt>
      <trkpt lat="43.51008" lon="6.31739">
        <ele>316.9</ele>
        <time>2020-03-04T13:06:43Z</time>
      </trkpt>
      <trkpt lat="43.51007" lon="6.31726">
        <ele>316.3</ele>
        <time>2020-03-04T13:06:53Z</time>
      </trkpt>
      <trkpt lat="43.51005" lon="6.31714">
        <ele>315</ele>
        <time>2020-03-04T13:06:59Z</time>
      </trkpt>
      <trkpt lat="43.51004" lon="6.31701">
        <ele>315.7</ele>
        <time>2020-03-04T13:07:06Z</time>
      </trkpt>
      <trkpt lat="43.51002" lon="6.31688">
        <ele>315.1</ele>
        <time>2020-03-04T13:07:15Z</time>
      </trkpt>
      <trkpt lat="43.51001" lon="6.31676">
        <ele>314.5</ele>
        <time>2020-03-04T13:07:24Z</time>
      </trkpt>
      <trkpt lat="43.51001" lon="6.31663">
        <ele>313.8</ele>
        <time>2020-03-04T13:07:34Z</time>
      </trkpt>
      <trkpt lat="43.51001" lon="6.3165">
        <ele>312.8</ele>
        <time>2020-03-04T13:07:46Z</time>
      </trkpt>
      <trkpt lat="43.50997" lon="6.31637">
        <ele>312.3</ele>
        <time>2020-03-04T13:07:53Z</time>
      </trkpt>
      <trkpt lat="43.50993" lon="6.31625">
        <ele>311.3</ele>
        <time>2020-03-04T13:08:03Z</time>
      </trkpt>
      <trkpt lat="43.50989" lon="6.31613">
        <ele>310.7</ele>
        <time>2020-03-04T13:08:11Z</time>
      </trkpt>
      <trkpt lat="43.50984" lon="6.31601">
        <ele>309.8</ele>
        <time>2020-03-04T13:08:22Z</time>
      </trkpt>
      <trkpt lat="43.5098" lon="6.31589">
        <ele>308.8</ele>
        <time>2020-03-04T13:08:33Z</time>
      </trkpt>
      <trkpt lat="43.5098" lon="6.31576">
        <ele>308.2</ele>
        <time>2020-03-04T13:08:45Z</time>
      </trkpt>
      <trkpt lat="43.50978" lon="6.31562">
        <ele>307.8</ele>
        <time>2020-03-04T13:08:54Z</time>
      </trkpt>
      <trkpt lat="43.50977" lon="6.31549">
        <ele>307.7</ele>
        <time>2020-03-04T13:09:03Z</time>
      </trkpt>
      <trkpt lat="43.50976" lon="6.31537">
        <ele>307.5</ele>
        <time>2020-03-04T13:09:11Z</time>
      </trkpt>
      <trkpt lat="43.50972" lon="6.31525">
        <ele>307.6</ele>
        <time>2020-03-04T13:09:18Z</time>
      </trkpt>
      <trkpt lat="43.50972" lon="6.3151">
        <ele>307.5</ele>
        <time>2020-03-04T13:09:26Z</time>
      </trkpt>
      <trkpt lat="43.50969" lon="6.31498">
        <ele>307.5</ele>
        <time>2020-03-04T13:09:35Z</time>
      </trkpt>
      <trkpt lat="43.50964" lon="6.31486">
        <ele>307.4</ele>
        <time>2020-03-04T13:09:44Z</time>
      </trkpt>
      <trkpt lat="43.50958" lon="6.31477">
        <ele>307.1</ele>
        <time>2020-03-04T13:09:52Z</time>
      </trkpt>
      <trkpt lat="43.50954" lon="6.31465">
        <ele>307</ele>
        <time>2020-03-04T13:10:02Z</time>
      </trkpt>
      <trkpt lat="43.50952" lon="6.31452">
        <ele>306.8</ele>
        <time>2020-03-04T13:10:11Z</time>
      </trkpt>
      <trkpt lat="43.50946" lon="6.31442">
        <ele>306.9</ele>
        <time>2020-03-04T13:10:18Z</time>
      </trkpt>
      <trkpt lat="43.50939" lon="6.31432">
        <ele>306.5</ele>
        <time>2020-03-04T13:10:25Z</time>
      </trkpt>
      <trkpt lat="43.50933" lon="6.31423">
        <ele>306.2</ele>
        <time>2020-03-04T13:10:33Z</time>
      </trkpt>
      <trkpt lat="43.50926" lon="6.31414">
        <ele>305.6</ele>
        <time>2020-03-04T13:10:42Z</time>
      </trkpt>
      <trkpt lat="43.50919" lon="6.31404">
        <ele>305.4</ele>
        <time>2020-03-04T13:10:50Z</time>
      </trkpt>
      <trkpt lat="43.50911" lon="6.31395">
        <ele>304.8</ele>
        <time>2020-03-04T13:10:59Z</time>
      </trkpt>
      <trkpt lat="43.50903" lon="6.31387">
        <ele>304.7</ele>
        <time>2020-03-04T13:11:06Z</time>
      </trkpt>
      <trkpt lat="43.50898" lon="6.31377">
        <ele>304.4</ele>
        <time>2020-03-04T13:11:15Z</time>
      </trkpt>
      <trkpt lat="43.50893" lon="6.31365">
        <ele>304.2</ele>
        <time>2020-03-04T13:11:23Z</time>
      </trkpt>
      <trkpt lat="43.50897" lon="6.31377">
        <ele>304.1</ele>
        <time>2020-03-04T13:11:55Z</time>
      </trkpt>
      <trkpt lat="43.50901" lon="6.31389">
        <ele>304.4</ele>
        <time>2020-03-04T13:12:05Z</time>
      </trkpt>
      <trkpt lat="43.50907" lon="6.314">
        <ele>304.6</ele>
        <time>2020-03-04T13:12:14Z</time>
      </trkpt>
      <trkpt lat="43.50914" lon="6.31409">
        <ele>305.1</ele>
        <time>2020-03-04T13:12:24Z</time>
      </trkpt>
      <trkpt lat="43.5092" lon="6.3142">
        <ele>305.6</ele>
        <time>2020-03-04T13:12:35Z</time>
      </trkpt>
      <trkpt lat="43.50928" lon="6.31428">
        <ele>306</ele>
        <time>2020-03-04T13:12:43Z</time>
      </trkpt>
      <trkpt lat="43.50935" lon="6.31436">
        <ele>306.1</ele>
        <time>2020-03-04T13:12:52Z</time>
      </trkpt>
      <trkpt lat="43.50942" lon="6.31446">
        <ele>306.2</ele>
        <time>2020-03-04T13:13:03Z</time>
      </trkpt>
      <trkpt lat="43.5095" lon="6.31441">
        <ele>306</ele>
        <time>2020-03-04T13:13:46Z</time>
      </trkpt>
      <trkpt lat="43.50959" lon="6.31436">
        <ele>306.3</ele>
        <time>2020-03-04T13:14:01Z</time>
      </trkpt>
      <trkpt lat="43.50966" lon="6.31427">
        <ele>306.4</ele>
        <time>2020-03-04T13:14:13Z</time>
      </trkpt>
      <trkpt lat="43.50972" lon="6.31416">
        <ele>305.9</ele>
        <time>2020-03-04T13:14:23Z</time>
      </trkpt>
      <trkpt lat="43.50977" lon="6.31405">
        <ele>305.7</ele>
        <time>2020-03-04T13:14:32Z</time>
      </trkpt>
      <trkpt lat="43.50982" lon="6.31394">
        <ele>305.5</ele>
        <time>2020-03-04T13:14:39Z</time>
      </trkpt>
      <trkpt lat="43.50986" lon="6.31383">
        <ele>305.3</ele>
        <time>2020-03-04T13:14:48Z</time>
      </trkpt>
      <trkpt lat="43.5099" lon="6.3137">
        <ele>305.3</ele>
        <time>2020-03-04T13:14:57Z</time>
      </trkpt>
      <trkpt lat="43.50992" lon="6.31357">
        <ele>305.1</ele>
        <time>2020-03-04T13:15:06Z</time>
      </trkpt>
      <trkpt lat="43.50998" lon="6.31348">
        <ele>305</ele>
        <time>2020-03-04T13:15:15Z</time>
      </trkpt>
      <trkpt lat="43.51003" lon="6.31336">
        <ele>305.2</ele>
        <time>2020-03-04T13:15:24Z</time>
      </trkpt>
      <trkpt lat="43.51008" lon="6.31324">
        <ele>304.7</ele>
        <time>2020-03-04T13:15:35Z</time>
      </trkpt>
      <trkpt lat="43.51015" lon="6.31313">
        <ele>305.1</ele>
        <time>2020-03-04T13:15:43Z</time>
      </trkpt>
      <trkpt lat="43.51021" lon="6.31303">
        <ele>305.2</ele>
        <time>2020-03-04T13:15:50Z</time>
      </trkpt>
      <trkpt lat="43.51028" lon="6.31293">
        <ele>305.2</ele>
        <time>2020-03-04T13:16:08Z</time>
      </trkpt>
      <trkpt lat="43.51027" lon="6.3128">
        <ele>304.9</ele>
        <time>2020-03-04T13:16:24Z</time>
      </trkpt>
      <trkpt lat="43.51024" lon="6.31268">
        <ele>304.6</ele>
        <time>2020-03-04T13:16:44Z</time>
      </trkpt>
      <trkpt lat="43.51027" lon="6.31256">
        <ele>304.6</ele>
        <time>2020-03-04T13:16:54Z</time>
      </trkpt>
      <trkpt lat="43.51027" lon="6.31242">
        <ele>305.1</ele>
        <time>2020-03-04T13:17:06Z</time>
      </trkpt>
      <trkpt lat="43.51032" lon="6.31227">
        <ele>305</ele>
        <time>2020-03-04T13:17:17Z</time>
      </trkpt>
      <trkpt lat="43.51034" lon="6.31215">
        <ele>305</ele>
        <time>2020-03-04T13:17:25Z</time>
      </trkpt>
      <trkpt lat="43.51036" lon="6.31202">
        <ele>305.9</ele>
        <time>2020-03-04T13:17:39Z</time>
      </trkpt>
      <trkpt lat="43.51039" lon="6.31189">
        <ele>305.8</ele>
        <time>2020-03-04T13:18:10Z</time>
      </trkpt>
      <trkpt lat="43.51047" lon="6.31183">
        <ele>306.2</ele>
        <time>2020-03-04T13:18:39Z</time>
      </trkpt>
      <trkpt lat="43.51056" lon="6.31179">
        <ele>306.7</ele>
        <time>2020-03-04T13:18:49Z</time>
      </trkpt>
      <trkpt lat="43.51065" lon="6.31176">
        <ele>307.2</ele>
        <time>2020-03-04T13:19:02Z</time>
      </trkpt>
      <trkpt lat="43.51074" lon="6.31171">
        <ele>307.6</ele>
        <time>2020-03-04T13:19:11Z</time>
      </trkpt>
      <trkpt lat="43.51082" lon="6.31164">
        <ele>308.4</ele>
        <time>2020-03-04T13:19:23Z</time>
      </trkpt>
      <trkpt lat="43.51091" lon="6.31159">
        <ele>309.4</ele>
        <time>2020-03-04T13:19:35Z</time>
      </trkpt>
      <trkpt lat="43.51101" lon="6.31156">
        <ele>309.9</ele>
        <time>2020-03-04T13:19:47Z</time>
      </trkpt>
      <trkpt lat="43.5111" lon="6.31152">
        <ele>309.9</ele>
        <time>2020-03-04T13:19:56Z</time>
      </trkpt>
      <trkpt lat="43.51118" lon="6.31148">
        <ele>310.4</ele>
        <time>2020-03-04T13:20:07Z</time>
      </trkpt>
      <trkpt lat="43.51128" lon="6.31142">
        <ele>310.6</ele>
        <time>2020-03-04T13:20:18Z</time>
      </trkpt>
      <trkpt lat="43.51136" lon="6.31138">
        <ele>310.7</ele>
        <time>2020-03-04T13:20:26Z</time>
      </trkpt>
      <trkpt lat="43.51146" lon="6.31136">
        <ele>310.9</ele>
        <time>2020-03-04T13:20:37Z</time>
      </trkpt>
      <trkpt lat="43.51155" lon="6.31133">
        <ele>311.3</ele>
        <time>2020-03-04T13:20:46Z</time>
      </trkpt>
      <trkpt lat="43.51164" lon="6.31129">
        <ele>311.9</ele>
        <time>2020-03-04T13:20:54Z</time>
      </trkpt>
      <trkpt lat="43.51172" lon="6.31122">
        <ele>312.4</ele>
        <time>2020-03-04T13:21:04Z</time>
      </trkpt>
      <trkpt lat="43.51177" lon="6.31111">
        <ele>312.8</ele>
        <time>2020-03-04T13:21:14Z</time>
      </trkpt>
      <trkpt lat="43.51182" lon="6.311">
        <ele>313.3</ele>
        <time>2020-03-04T13:21:22Z</time>
      </trkpt>
      <trkpt lat="43.51185" lon="6.31087">
        <ele>314.1</ele>
        <time>2020-03-04T13:21:31Z</time>
      </trkpt>
      <trkpt lat="43.51187" lon="6.31074">
        <ele>315</ele>
        <time>2020-03-04T13:21:40Z</time>
      </trkpt>
      <trkpt lat="43.51191" lon="6.31062">
        <ele>315.9</ele>
        <time>2020-03-04T13:21:51Z</time>
      </trkpt>
      <trkpt lat="43.51195" lon="6.3105">
        <ele>316.8</ele>
        <time>2020-03-04T13:22:03Z</time>
      </trkpt>
      <trkpt lat="43.51195" lon="6.31037">
        <ele>317.2</ele>
        <time>2020-03-04T13:22:14Z</time>
      </trkpt>
      <trkpt lat="43.51196" lon="6.31024">
        <ele>317.9</ele>
        <time>2020-03-04T13:22:25Z</time>
      </trkpt>
      <trkpt lat="43.512" lon="6.31012">
        <ele>318.4</ele>
        <time>2020-03-04T13:22:36Z</time>
      </trkpt>
      <trkpt lat="43.51202" lon="6.31">
        <ele>319.1</ele>
        <time>2020-03-04T13:22:44Z</time>
      </trkpt>
      <trkpt lat="43.51208" lon="6.3099">
        <ele>318.9</ele>
        <time>2020-03-04T13:22:53Z</time>
      </trkpt>
      <trkpt lat="43.51213" lon="6.30979">
        <ele>318.8</ele>
        <time>2020-03-04T13:23:02Z</time>
      </trkpt>
      <trkpt lat="43.51219" lon="6.30967">
        <ele>318.8</ele>
        <time>2020-03-04T13:23:11Z</time>
      </trkpt>
      <trkpt lat="43.51226" lon="6.30959">
        <ele>319</ele>
        <time>2020-03-04T13:23:21Z</time>
      </trkpt>
      <trkpt lat="43.51231" lon="6.30949">
        <ele>318.6</ele>
        <time>2020-03-04T13:23:30Z</time>
      </trkpt>
      <trkpt lat="43.51235" lon="6.30937">
        <ele>318.6</ele>
        <time>2020-03-04T13:23:39Z</time>
      </trkpt>
      <trkpt lat="43.51233" lon="6.30924">
        <ele>318.4</ele>
        <time>2020-03-04T13:24:19Z</time>
      </trkpt>
      <trkpt lat="43.51242" lon="6.30925">
        <ele>317.9</ele>
        <time>2020-03-04T13:27:19Z</time>
      </trkpt>
      <trkpt lat="43.51251" lon="6.3092">
        <ele>317.6</ele>
        <time>2020-03-04T13:27:29Z</time>
      </trkpt>
      <trkpt lat="43.5126" lon="6.30915">
        <ele>317</ele>
        <time>2020-03-04T13:27:41Z</time>
      </trkpt>
      <trkpt lat="43.51269" lon="6.30911">
        <ele>316.3</ele>
        <time>2020-03-04T13:27:50Z</time>
      </trkpt>
      <trkpt lat="43.51277" lon="6.30906">
        <ele>315.4</ele>
        <time>2020-03-04T13:28:00Z</time>
      </trkpt>
      <trkpt lat="43.51286" lon="6.30902">
        <ele>313.9</ele>
        <time>2020-03-04T13:28:11Z</time>
      </trkpt>
      <trkpt lat="43.51292" lon="6.30892">
        <ele>312.4</ele>
        <time>2020-03-04T13:28:22Z</time>
      </trkpt>
      <trkpt lat="43.51295" lon="6.30879">
        <ele>311.6</ele>
        <time>2020-03-04T13:28:32Z</time>
      </trkpt>
      <trkpt lat="43.51298" lon="6.30866">
        <ele>310.9</ele>
        <time>2020-03-04T13:28:43Z</time>
      </trkpt>
      <trkpt lat="43.51304" lon="6.30857">
        <ele>310.2</ele>
        <time>2020-03-04T13:28:50Z</time>
      </trkpt>
      <trkpt lat="43.51313" lon="6.30851">
        <ele>308.9</ele>
        <time>2020-03-04T13:29:00Z</time>
      </trkpt>
      <trkpt lat="43.5132" lon="6.30843">
        <ele>306.4</ele>
        <time>2020-03-04T13:29:20Z</time>
      </trkpt>
      <trkpt lat="43.51323" lon="6.30831">
        <ele>304.1</ele>
        <time>2020-03-04T13:29:36Z</time>
      </trkpt>
      <trkpt lat="43.51332" lon="6.30826">
        <ele>302.9</ele>
        <time>2020-03-04T13:29:45Z</time>
      </trkpt>
      <trkpt lat="43.5134" lon="6.3082">
        <ele>302.1</ele>
        <time>2020-03-04T13:29:54Z</time>
      </trkpt>
      <trkpt lat="43.51349" lon="6.30815">
        <ele>301.6</ele>
        <time>2020-03-04T13:30:00Z</time>
      </trkpt>
      <trkpt lat="43.51358" lon="6.30812">
        <ele>300.9</ele>
        <time>2020-03-04T13:30:07Z</time>
      </trkpt>
      <trkpt lat="43.51368" lon="6.30808">
        <ele>300.4</ele>
        <time>2020-03-04T13:30:14Z</time>
      </trkpt>
      <trkpt lat="43.51376" lon="6.30804">
        <ele>299.8</ele>
        <time>2020-03-04T13:30:23Z</time>
      </trkpt>
      <trkpt lat="43.51386" lon="6.30801">
        <ele>298.9</ele>
        <time>2020-03-04T13:30:33Z</time>
      </trkpt>
      <trkpt lat="43.51395" lon="6.30798">
        <ele>298.1</ele>
        <time>2020-03-04T13:30:40Z</time>
      </trkpt>
      <trkpt lat="43.51404" lon="6.30798">
        <ele>297.1</ele>
        <time>2020-03-04T13:30:47Z</time>
      </trkpt>
      <trkpt lat="43.51414" lon="6.30796">
        <ele>295.8</ele>
        <time>2020-03-04T13:30:58Z</time>
      </trkpt>
      <trkpt lat="43.51423" lon="6.30794">
        <ele>293.9</ele>
        <time>2020-03-04T13:31:10Z</time>
      </trkpt>
      <trkpt lat="43.51433" lon="6.30794">
        <ele>292.2</ele>
        <time>2020-03-04T13:31:21Z</time>
      </trkpt>
      <trkpt lat="43.51442" lon="6.30793">
        <ele>290.6</ele>
        <time>2020-03-04T13:31:32Z</time>
      </trkpt>
      <trkpt lat="43.51451" lon="6.3079">
        <ele>289.4</ele>
        <time>2020-03-04T13:31:43Z</time>
      </trkpt>
      <trkpt lat="43.51459" lon="6.30783">
        <ele>287.5</ele>
        <time>2020-03-04T13:31:57Z</time>
      </trkpt>
      <trkpt lat="43.51468" lon="6.30781">
        <ele>285.8</ele>
        <time>2020-03-04T13:32:38Z</time>
      </trkpt>
      <trkpt lat="43.51464" lon="6.30793">
        <ele>285.8</ele>
        <time>2020-03-04T13:33:30Z</time>
      </trkpt>
      <trkpt lat="43.51457" lon="6.30802">
        <ele>285.7</ele>
        <time>2020-03-04T13:33:42Z</time>
      </trkpt>
      <trkpt lat="43.51448" lon="6.30807">
        <ele>285.6</ele>
        <time>2020-03-04T13:33:56Z</time>
      </trkpt>
      <trkpt lat="43.51439" lon="6.3081">
        <ele>285.8</ele>
        <time>2020-03-04T13:34:06Z</time>
      </trkpt>
      <trkpt lat="43.5143" lon="6.30815">
        <ele>285.4</ele>
        <time>2020-03-04T13:34:16Z</time>
      </trkpt>
      <trkpt lat="43.51423" lon="6.30823">
        <ele>286</ele>
        <time>2020-03-04T13:34:27Z</time>
      </trkpt>
      <trkpt lat="43.51416" lon="6.30834">
        <ele>286.5</ele>
        <time>2020-03-04T13:34:36Z</time>
      </trkpt>
      <trkpt lat="43.5141" lon="6.30843">
        <ele>286.9</ele>
        <time>2020-03-04T13:34:43Z</time>
      </trkpt>
      <trkpt lat="43.51404" lon="6.30853">
        <ele>287.3</ele>
        <time>2020-03-04T13:34:50Z</time>
      </trkpt>
      <trkpt lat="43.51398" lon="6.30865">
        <ele>287.6</ele>
        <time>2020-03-04T13:34:58Z</time>
      </trkpt>
      <trkpt lat="43.51393" lon="6.30875">
        <ele>288.2</ele>
        <time>2020-03-04T13:35:08Z</time>
      </trkpt>
      <trkpt lat="43.51392" lon="6.30888">
        <ele>288.4</ele>
        <time>2020-03-04T13:35:17Z</time>
      </trkpt>
      <trkpt lat="43.51391" lon="6.309">
        <ele>288.9</ele>
        <time>2020-03-04T13:35:26Z</time>
      </trkpt>
      <trkpt lat="43.5139" lon="6.30913">
        <ele>289.1</ele>
        <time>2020-03-04T13:35:35Z</time>
      </trkpt>
      <trkpt lat="43.51387" lon="6.30926">
        <ele>289.3</ele>
        <time>2020-03-04T13:35:42Z</time>
      </trkpt>
      <trkpt lat="43.51386" lon="6.30939">
        <ele>289.4</ele>
        <time>2020-03-04T13:35:51Z</time>
      </trkpt>
      <trkpt lat="43.51383" lon="6.30952">
        <ele>289.4</ele>
        <time>2020-03-04T13:35:59Z</time>
      </trkpt>
      <trkpt lat="43.51382" lon="6.30965">
        <ele>289.7</ele>
        <time>2020-03-04T13:36:08Z</time>
      </trkpt>
      <trkpt lat="43.51384" lon="6.30978">
        <ele>290</ele>
        <time>2020-03-04T13:36:17Z</time>
      </trkpt>
      <trkpt lat="43.51384" lon="6.30992">
        <ele>290.3</ele>
        <time>2020-03-04T13:36:26Z</time>
      </trkpt>
      <trkpt lat="43.51387" lon="6.31003">
        <ele>290.7</ele>
        <time>2020-03-04T13:36:35Z</time>
      </trkpt>
      <trkpt lat="43.51392" lon="6.31016">
        <ele>290.9</ele>
        <time>2020-03-04T13:36:43Z</time>
      </trkpt>
      <trkpt lat="43.51399" lon="6.31025">
        <ele>291.3</ele>
        <time>2020-03-04T13:36:51Z</time>
      </trkpt>
      <trkpt lat="43.51406" lon="6.31034">
        <ele>292.6</ele>
        <time>2020-03-04T13:37:01Z</time>
      </trkpt>
      <trkpt lat="43.51413" lon="6.31042">
        <ele>293</ele>
        <time>2020-03-04T13:37:09Z</time>
      </trkpt>
      <trkpt lat="43.5142" lon="6.3105">
        <ele>293.3</ele>
        <time>2020-03-04T13:37:17Z</time>
      </trkpt>
      <trkpt lat="43.51427" lon="6.31059">
        <ele>293.6</ele>
        <time>2020-03-04T13:37:24Z</time>
      </trkpt>
      <trkpt lat="43.51434" lon="6.31069">
        <ele>293.5</ele>
        <time>2020-03-04T13:37:31Z</time>
      </trkpt>
      <trkpt lat="43.5144" lon="6.31081">
        <ele>293.7</ele>
        <time>2020-03-04T13:37:40Z</time>
      </trkpt>
      <trkpt lat="43.51444" lon="6.31092">
        <ele>293.8</ele>
        <time>2020-03-04T13:37:48Z</time>
      </trkpt>
      <trkpt lat="43.51447" lon="6.31104">
        <ele>294.2</ele>
        <time>2020-03-04T13:37:57Z</time>
      </trkpt>
      <trkpt lat="43.51449" lon="6.31118">
        <ele>294.4</ele>
        <time>2020-03-04T13:38:07Z</time>
      </trkpt>
      <trkpt lat="43.51449" lon="6.31131">
        <ele>294.8</ele>
        <time>2020-03-04T13:38:16Z</time>
      </trkpt>
      <trkpt lat="43.51447" lon="6.31144">
        <ele>294.9</ele>
        <time>2020-03-04T13:38:24Z</time>
      </trkpt>
      <trkpt lat="43.51445" lon="6.31156">
        <ele>295.2</ele>
        <time>2020-03-04T13:38:32Z</time>
      </trkpt>
      <trkpt lat="43.51442" lon="6.31169">
        <ele>295.4</ele>
        <time>2020-03-04T13:38:40Z</time>
      </trkpt>
      <trkpt lat="43.51439" lon="6.31181">
        <ele>295.7</ele>
        <time>2020-03-04T13:38:49Z</time>
      </trkpt>
      <trkpt lat="43.51436" lon="6.31194">
        <ele>295.7</ele>
        <time>2020-03-04T13:38:56Z</time>
      </trkpt>
      <trkpt lat="43.51431" lon="6.31206">
        <ele>296</ele>
        <time>2020-03-04T13:39:04Z</time>
      </trkpt>
      <trkpt lat="43.5143" lon="6.31219">
        <ele>296.1</ele>
        <time>2020-03-04T13:39:13Z</time>
      </trkpt>
      <trkpt lat="43.51434" lon="6.31232">
        <ele>296.6</ele>
        <time>2020-03-04T13:39:21Z</time>
      </trkpt>
      <trkpt lat="43.51439" lon="6.31243">
        <ele>297</ele>
        <time>2020-03-04T13:39:29Z</time>
      </trkpt>
      <trkpt lat="43.51443" lon="6.31255">
        <ele>297.2</ele>
        <time>2020-03-04T13:39:37Z</time>
      </trkpt>
      <trkpt lat="43.51449" lon="6.31265">
        <ele>297.9</ele>
        <time>2020-03-04T13:39:46Z</time>
      </trkpt>
      <trkpt lat="43.51458" lon="6.31269">
        <ele>298.4</ele>
        <time>2020-03-04T13:39:53Z</time>
      </trkpt>
      <trkpt lat="43.51467" lon="6.31268">
        <ele>298.8</ele>
        <time>2020-03-04T13:40:01Z</time>
      </trkpt>
      <trkpt lat="43.51476" lon="6.31263">
        <ele>299.1</ele>
        <time>2020-03-04T13:40:09Z</time>
      </trkpt>
      <trkpt lat="43.51486" lon="6.31259">
        <ele>299.2</ele>
        <time>2020-03-04T13:40:18Z</time>
      </trkpt>
      <trkpt lat="43.51495" lon="6.31255">
        <ele>299.3</ele>
        <time>2020-03-04T13:40:27Z</time>
      </trkpt>
      <trkpt lat="43.51503" lon="6.31251">
        <ele>299.8</ele>
        <time>2020-03-04T13:40:35Z</time>
      </trkpt>
      <trkpt lat="43.51512" lon="6.31245">
        <ele>300.2</ele>
        <time>2020-03-04T13:40:43Z</time>
      </trkpt>
      <trkpt lat="43.51521" lon="6.31237">
        <ele>300.6</ele>
        <time>2020-03-04T13:40:52Z</time>
      </trkpt>
      <trkpt lat="43.51529" lon="6.3123">
        <ele>300.6</ele>
        <time>2020-03-04T13:41:01Z</time>
      </trkpt>
      <trkpt lat="43.51536" lon="6.31221">
        <ele>301.2</ele>
        <time>2020-03-04T13:41:08Z</time>
      </trkpt>
      <trkpt lat="43.51542" lon="6.31212">
        <ele>301.6</ele>
        <time>2020-03-04T13:41:15Z</time>
      </trkpt>
      <trkpt lat="43.51548" lon="6.31202">
        <ele>301.7</ele>
        <time>2020-03-04T13:41:25Z</time>
      </trkpt>
      <trkpt lat="43.51553" lon="6.31191">
        <ele>301.9</ele>
        <time>2020-03-04T13:41:33Z</time>
      </trkpt>
      <trkpt lat="43.51559" lon="6.31178">
        <ele>302.6</ele>
        <time>2020-03-04T13:41:43Z</time>
      </trkpt>
      <trkpt lat="43.51566" lon="6.3117">
        <ele>303</ele>
        <time>2020-03-04T13:41:50Z</time>
      </trkpt>
      <trkpt lat="43.51575" lon="6.31165">
        <ele>303.2</ele>
        <time>2020-03-04T13:42:00Z</time>
      </trkpt>
      <trkpt lat="43.51584" lon="6.31161">
        <ele>303.5</ele>
        <time>2020-03-04T13:42:08Z</time>
      </trkpt>
      <trkpt lat="43.51593" lon="6.31156">
        <ele>303.4</ele>
        <time>2020-03-04T13:42:17Z</time>
      </trkpt>
      <trkpt lat="43.516" lon="6.31147">
        <ele>303.3</ele>
        <time>2020-03-04T13:42:26Z</time>
      </trkpt>
      <trkpt lat="43.51608" lon="6.31143">
        <ele>303.6</ele>
        <time>2020-03-04T13:42:35Z</time>
      </trkpt>
      <trkpt lat="43.51617" lon="6.31139">
        <ele>303.7</ele>
        <time>2020-03-04T13:42:47Z</time>
      </trkpt>
      <trkpt lat="43.51626" lon="6.31133">
        <ele>304.1</ele>
        <time>2020-03-04T13:43:00Z</time>
      </trkpt>
      <trkpt lat="43.51633" lon="6.31126">
        <ele>304.1</ele>
        <time>2020-03-04T13:43:08Z</time>
      </trkpt>
      <trkpt lat="43.51642" lon="6.31119">
        <ele>304.1</ele>
        <time>2020-03-04T13:43:17Z</time>
      </trkpt>
      <trkpt lat="43.5165" lon="6.31115">
        <ele>304.3</ele>
        <time>2020-03-04T13:43:24Z</time>
      </trkpt>
      <trkpt lat="43.5166" lon="6.31112">
        <ele>304.5</ele>
        <time>2020-03-04T13:43:33Z</time>
      </trkpt>
      <trkpt lat="43.51669" lon="6.3111">
        <ele>305.6</ele>
        <time>2020-03-04T13:43:43Z</time>
      </trkpt>
      <trkpt lat="43.51678" lon="6.31113">
        <ele>306.1</ele>
        <time>2020-03-04T13:45:16Z</time>
      </trkpt>
      <trkpt lat="43.51687" lon="6.31117">
        <ele>306</ele>
        <time>2020-03-04T13:47:59Z</time>
      </trkpt>
      <trkpt lat="43.51689" lon="6.31105">
        <ele>306.6</ele>
        <time>2020-03-04T13:50:06Z</time>
      </trkpt>
      <trkpt lat="43.51696" lon="6.31115">
        <ele>306.9</ele>
        <time>2020-03-04T13:51:46Z</time>
      </trkpt>
      <trkpt lat="43.51705" lon="6.3112">
        <ele>307</ele>
        <time>2020-03-04T13:51:55Z</time>
      </trkpt>
      <trkpt lat="43.51714" lon="6.31123">
        <ele>307.6</ele>
        <time>2020-03-04T13:52:05Z</time>
      </trkpt>
      <trkpt lat="43.51722" lon="6.3113">
        <ele>307.7</ele>
        <time>2020-03-04T13:52:15Z</time>
      </trkpt>
      <trkpt lat="43.5173" lon="6.31137">
        <ele>308.1</ele>
        <time>2020-03-04T13:52:24Z</time>
      </trkpt>
      <trkpt lat="43.51738" lon="6.31145">
        <ele>308.7</ele>
        <time>2020-03-04T13:52:33Z</time>
      </trkpt>
      <trkpt lat="43.51746" lon="6.31151">
        <ele>308.7</ele>
        <time>2020-03-04T13:52:42Z</time>
      </trkpt>
      <trkpt lat="43.51753" lon="6.31159">
        <ele>309.3</ele>
        <time>2020-03-04T13:52:53Z</time>
      </trkpt>
      <trkpt lat="43.51761" lon="6.31165">
        <ele>309.6</ele>
        <time>2020-03-04T13:53:02Z</time>
      </trkpt>
      <trkpt lat="43.51769" lon="6.31172">
        <ele>309.8</ele>
        <time>2020-03-04T13:53:12Z</time>
      </trkpt>
      <trkpt lat="43.51777" lon="6.31181">
        <ele>309.7</ele>
        <time>2020-03-04T13:53:22Z</time>
      </trkpt>
      <trkpt lat="43.51784" lon="6.31189">
        <ele>309.4</ele>
        <time>2020-03-04T13:53:31Z</time>
      </trkpt>
      <trkpt lat="43.5179" lon="6.31198">
        <ele>309.5</ele>
        <time>2020-03-04T13:53:39Z</time>
      </trkpt>
      <trkpt lat="43.51797" lon="6.31206">
        <ele>309.8</ele>
        <time>2020-03-04T13:53:48Z</time>
      </trkpt>
      <trkpt lat="43.51805" lon="6.31214">
        <ele>309.9</ele>
        <time>2020-03-04T13:53:57Z</time>
      </trkpt>
      <trkpt lat="43.51814" lon="6.31218">
        <ele>310.4</ele>
        <time>2020-03-04T13:54:14Z</time>
      </trkpt>
      <trkpt lat="43.51822" lon="6.31221">
        <ele>311.1</ele>
        <time>2020-03-04T13:55:22Z</time>
      </trkpt>
      <trkpt lat="43.51832" lon="6.31221">
        <ele>311.2</ele>
        <time>2020-03-04T13:55:30Z</time>
      </trkpt>
      <trkpt lat="43.51841" lon="6.31223">
        <ele>311.9</ele>
        <time>2020-03-04T13:55:39Z</time>
      </trkpt>
      <trkpt lat="43.5185" lon="6.31228">
        <ele>312.1</ele>
        <time>2020-03-04T13:55:47Z</time>
      </trkpt>
      <trkpt lat="43.51859" lon="6.31231">
        <ele>312.6</ele>
        <time>2020-03-04T13:55:56Z</time>
      </trkpt>
      <trkpt lat="43.51868" lon="6.31229">
        <ele>313.1</ele>
        <time>2020-03-04T13:56:06Z</time>
      </trkpt>
      <trkpt lat="43.51877" lon="6.31229">
        <ele>313.4</ele>
        <time>2020-03-04T13:56:14Z</time>
      </trkpt>
      <trkpt lat="43.51886" lon="6.31227">
        <ele>314.2</ele>
        <time>2020-03-04T13:56:24Z</time>
      </trkpt>
      <trkpt lat="43.51896" lon="6.31227">
        <ele>315</ele>
        <time>2020-03-04T13:56:32Z</time>
      </trkpt>
      <trkpt lat="43.51905" lon="6.31227">
        <ele>315.6</ele>
        <time>2020-03-04T13:56:41Z</time>
      </trkpt>
      <trkpt lat="43.51915" lon="6.31226">
        <ele>316.1</ele>
        <time>2020-03-04T13:56:50Z</time>
      </trkpt>
      <trkpt lat="43.51925" lon="6.31227">
        <ele>316.8</ele>
        <time>2020-03-04T13:57:00Z</time>
      </trkpt>
      <trkpt lat="43.51934" lon="6.31225">
        <ele>317.8</ele>
        <time>2020-03-04T13:57:10Z</time>
      </trkpt>
      <trkpt lat="43.51943" lon="6.31223">
        <ele>318.8</ele>
        <time>2020-03-04T13:57:24Z</time>
      </trkpt>
      <trkpt lat="43.51952" lon="6.31219">
        <ele>320.8</ele>
        <time>2020-03-04T13:57:42Z</time>
      </trkpt>
      <trkpt lat="43.5196" lon="6.31215">
        <ele>321.8</ele>
        <time>2020-03-04T13:57:51Z</time>
      </trkpt>
      <trkpt lat="43.5197" lon="6.31219">
        <ele>322.8</ele>
        <time>2020-03-04T13:57:59Z</time>
      </trkpt>
      <trkpt lat="43.51978" lon="6.31226">
        <ele>323.2</ele>
        <time>2020-03-04T13:58:08Z</time>
      </trkpt>
      <trkpt lat="43.51985" lon="6.31234">
        <ele>323.3</ele>
        <time>2020-03-04T13:58:17Z</time>
      </trkpt>
      <trkpt lat="43.51993" lon="6.31241">
        <ele>323.2</ele>
        <time>2020-03-04T13:58:30Z</time>
      </trkpt>
      <trkpt lat="43.52002" lon="6.31244">
        <ele>323.5</ele>
        <time>2020-03-04T13:58:48Z</time>
      </trkpt>
      <trkpt lat="43.51998" lon="6.31255">
        <ele>324</ele>
        <time>2020-03-04T13:59:27Z</time>
      </trkpt>
      <trkpt lat="43.52008" lon="6.31254">
        <ele>324.5</ele>
        <time>2020-03-04T14:00:26Z</time>
      </trkpt>
      <trkpt lat="43.52017" lon="6.31248">
        <ele>325.4</ele>
        <time>2020-03-04T14:00:46Z</time>
      </trkpt>
      <trkpt lat="43.52025" lon="6.31242">
        <ele>326.5</ele>
        <time>2020-03-04T14:00:55Z</time>
      </trkpt>
      <trkpt lat="43.52033" lon="6.31234">
        <ele>327.8</ele>
        <time>2020-03-04T14:01:06Z</time>
      </trkpt>
      <trkpt lat="43.52039" lon="6.31226">
        <ele>328.8</ele>
        <time>2020-03-04T14:01:16Z</time>
      </trkpt>
      <trkpt lat="43.52043" lon="6.31214">
        <ele>329.6</ele>
        <time>2020-03-04T14:01:34Z</time>
      </trkpt>
      <trkpt lat="43.5205" lon="6.31204">
        <ele>330.4</ele>
        <time>2020-03-04T14:01:46Z</time>
      </trkpt>
      <trkpt lat="43.52059" lon="6.31203">
        <ele>331.5</ele>
        <time>2020-03-04T14:02:00Z</time>
      </trkpt>
      <trkpt lat="43.52063" lon="6.31215">
        <ele>331.9</ele>
        <time>2020-03-04T14:02:16Z</time>
      </trkpt>
      <trkpt lat="43.52066" lon="6.31227">
        <ele>332.2</ele>
        <time>2020-03-04T14:02:26Z</time>
      </trkpt>
      <trkpt lat="43.52067" lon="6.3124">
        <ele>332.6</ele>
        <time>2020-03-04T14:02:36Z</time>
      </trkpt>
      <trkpt lat="43.52067" lon="6.31253">
        <ele>332.6</ele>
        <time>2020-03-04T14:02:47Z</time>
      </trkpt>
      <trkpt lat="43.52072" lon="6.31264">
        <ele>333</ele>
        <time>2020-03-04T14:03:30Z</time>
      </trkpt>
      <trkpt lat="43.52076" lon="6.31277">
        <ele>333.4</ele>
        <time>2020-03-04T14:03:41Z</time>
      </trkpt>
      <trkpt lat="43.52081" lon="6.31288">
        <ele>333.8</ele>
        <time>2020-03-04T14:03:50Z</time>
      </trkpt>
      <trkpt lat="43.52087" lon="6.31298">
        <ele>334.3</ele>
        <time>2020-03-04T14:04:00Z</time>
      </trkpt>
      <trkpt lat="43.52094" lon="6.31307">
        <ele>334.5</ele>
        <time>2020-03-04T14:04:11Z</time>
      </trkpt>
      <trkpt lat="43.52101" lon="6.31317">
        <ele>334.8</ele>
        <time>2020-03-04T14:04:20Z</time>
      </trkpt>
      <trkpt lat="43.52109" lon="6.31324">
        <ele>335.1</ele>
        <time>2020-03-04T14:04:29Z</time>
      </trkpt>
      <trkpt lat="43.52116" lon="6.31333">
        <ele>335</ele>
        <time>2020-03-04T14:04:38Z</time>
      </trkpt>
      <trkpt lat="43.52121" lon="6.31344">
        <ele>335</ele>
        <time>2020-03-04T14:04:46Z</time>
      </trkpt>
      <trkpt lat="43.52126" lon="6.31354">
        <ele>335.3</ele>
        <time>2020-03-04T14:04:58Z</time>
      </trkpt>
      <trkpt lat="43.52128" lon="6.31366">
        <ele>335.4</ele>
        <time>2020-03-04T14:05:07Z</time>
      </trkpt>
      <trkpt lat="43.52134" lon="6.31356">
        <ele>336.1</ele>
        <time>2020-03-04T14:06:19Z</time>
      </trkpt>
      <trkpt lat="43.52143" lon="6.31356">
        <ele>336.9</ele>
        <time>2020-03-04T14:06:36Z</time>
      </trkpt>
      <trkpt lat="43.52152" lon="6.31358">
        <ele>337.6</ele>
        <time>2020-03-04T14:06:45Z</time>
      </trkpt>
      <trkpt lat="43.52161" lon="6.31361">
        <ele>338.2</ele>
        <time>2020-03-04T14:06:55Z</time>
      </trkpt>
      <trkpt lat="43.52169" lon="6.31367">
        <ele>338.6</ele>
        <time>2020-03-04T14:07:05Z</time>
      </trkpt>
      <trkpt lat="43.52177" lon="6.31375">
        <ele>339</ele>
        <time>2020-03-04T14:07:15Z</time>
      </trkpt>
      <trkpt lat="43.52185" lon="6.31379">
        <ele>339.6</ele>
        <time>2020-03-04T14:07:23Z</time>
      </trkpt>
      <trkpt lat="43.52194" lon="6.31383">
        <ele>340.1</ele>
        <time>2020-03-04T14:07:31Z</time>
      </trkpt>
      <trkpt lat="43.52204" lon="6.31384">
        <ele>340.4</ele>
        <time>2020-03-04T14:07:40Z</time>
      </trkpt>
      <trkpt lat="43.52213" lon="6.31384">
        <ele>341</ele>
        <time>2020-03-04T14:07:48Z</time>
      </trkpt>
      <trkpt lat="43.52222" lon="6.31383">
        <ele>342.1</ele>
        <time>2020-03-04T14:07:56Z</time>
      </trkpt>
      <trkpt lat="43.52231" lon="6.31381">
        <ele>342.6</ele>
        <time>2020-03-04T14:08:04Z</time>
      </trkpt>
      <trkpt lat="43.5224" lon="6.31378">
        <ele>343.4</ele>
        <time>2020-03-04T14:08:13Z</time>
      </trkpt>
      <trkpt lat="43.5225" lon="6.31377">
        <ele>344.1</ele>
        <time>2020-03-04T14:08:22Z</time>
      </trkpt>
      <trkpt lat="43.52259" lon="6.31374">
        <ele>345</ele>
        <time>2020-03-04T14:08:36Z</time>
      </trkpt>
      <trkpt lat="43.52268" lon="6.31374">
        <ele>345.7</ele>
        <time>2020-03-04T14:08:46Z</time>
      </trkpt>
      <trkpt lat="43.52277" lon="6.3137">
        <ele>346.7</ele>
        <time>2020-03-04T14:08:58Z</time>
      </trkpt>
      <trkpt lat="43.52287" lon="6.3137">
        <ele>347.3</ele>
        <time>2020-03-04T14:09:09Z</time>
      </trkpt>
      <trkpt lat="43.52297" lon="6.3137">
        <ele>348</ele>
        <time>2020-03-04T14:09:18Z</time>
      </trkpt>
      <trkpt lat="43.52305" lon="6.31364">
        <ele>348.7</ele>
        <time>2020-03-04T14:09:28Z</time>
      </trkpt>
      <trkpt lat="43.52314" lon="6.31357">
        <ele>349.5</ele>
        <time>2020-03-04T14:09:37Z</time>
      </trkpt>
      <trkpt lat="43.52322" lon="6.31351">
        <ele>350.4</ele>
        <time>2020-03-04T14:09:46Z</time>
      </trkpt>
      <trkpt lat="43.52331" lon="6.31344">
        <ele>350.9</ele>
        <time>2020-03-04T14:09:55Z</time>
      </trkpt>
      <trkpt lat="43.52339" lon="6.31337">
        <ele>351.8</ele>
        <time>2020-03-04T14:10:04Z</time>
      </trkpt>
      <trkpt lat="43.52347" lon="6.3133">
        <ele>352.3</ele>
        <time>2020-03-04T14:10:13Z</time>
      </trkpt>
      <trkpt lat="43.52356" lon="6.31326">
        <ele>352.9</ele>
        <time>2020-03-04T14:10:22Z</time>
      </trkpt>
      <trkpt lat="43.52366" lon="6.31328">
        <ele>353.3</ele>
        <time>2020-03-04T14:10:30Z</time>
      </trkpt>
      <trkpt lat="43.52375" lon="6.31328">
        <ele>353.6</ele>
        <time>2020-03-04T14:10:38Z</time>
      </trkpt>
      <trkpt lat="43.52383" lon="6.31322">
        <ele>353.9</ele>
        <time>2020-03-04T14:10:46Z</time>
      </trkpt>
      <trkpt lat="43.5239" lon="6.31312">
        <ele>354.4</ele>
        <time>2020-03-04T14:10:55Z</time>
      </trkpt>
      <trkpt lat="43.52397" lon="6.31303">
        <ele>355.2</ele>
        <time>2020-03-04T14:11:06Z</time>
      </trkpt>
      <trkpt lat="43.52402" lon="6.31292">
        <ele>355.6</ele>
        <time>2020-03-04T14:11:15Z</time>
      </trkpt>
      <trkpt lat="43.52407" lon="6.31282">
        <ele>355.9</ele>
        <time>2020-03-04T14:11:25Z</time>
      </trkpt>
      <trkpt lat="43.52414" lon="6.31273">
        <ele>356.6</ele>
        <time>2020-03-04T14:11:34Z</time>
      </trkpt>
      <trkpt lat="43.52421" lon="6.31263">
        <ele>357.4</ele>
        <time>2020-03-04T14:11:43Z</time>
      </trkpt>
      <trkpt lat="43.52428" lon="6.31255">
        <ele>357.5</ele>
        <time>2020-03-04T14:11:53Z</time>
      </trkpt>
      <trkpt lat="43.52437" lon="6.31248">
        <ele>357.9</ele>
        <time>2020-03-04T14:12:01Z</time>
      </trkpt>
      <trkpt lat="43.52447" lon="6.31245">
        <ele>358.6</ele>
        <time>2020-03-04T14:12:11Z</time>
      </trkpt>
      <trkpt lat="43.52455" lon="6.31239">
        <ele>359.6</ele>
        <time>2020-03-04T14:12:19Z</time>
      </trkpt>
      <trkpt lat="43.52464" lon="6.31234">
        <ele>360.2</ele>
        <time>2020-03-04T14:12:28Z</time>
      </trkpt>
      <trkpt lat="43.52474" lon="6.31231">
        <ele>360.7</ele>
        <time>2020-03-04T14:12:36Z</time>
      </trkpt>
      <trkpt lat="43.52482" lon="6.31226">
        <ele>361.6</ele>
        <time>2020-03-04T14:12:45Z</time>
      </trkpt>
      <trkpt lat="43.5249" lon="6.31219">
        <ele>362.6</ele>
        <time>2020-03-04T14:12:53Z</time>
      </trkpt>
      <trkpt lat="43.52498" lon="6.31213">
        <ele>363.6</ele>
        <time>2020-03-04T14:13:00Z</time>
      </trkpt>
      <trkpt lat="43.52505" lon="6.31205">
        <ele>364.6</ele>
        <time>2020-03-04T14:13:10Z</time>
      </trkpt>
      <trkpt lat="43.5251" lon="6.31194">
        <ele>365.4</ele>
        <time>2020-03-04T14:13:17Z</time>
      </trkpt>
      <trkpt lat="43.52515" lon="6.31183">
        <ele>365.9</ele>
        <time>2020-03-04T14:13:25Z</time>
      </trkpt>
      <trkpt lat="43.52519" lon="6.31171">
        <ele>366</ele>
        <time>2020-03-04T14:13:33Z</time>
      </trkpt>
      <trkpt lat="43.52523" lon="6.31158">
        <ele>366.8</ele>
        <time>2020-03-04T14:13:41Z</time>
      </trkpt>
      <trkpt lat="43.52526" lon="6.31145">
        <ele>367.7</ele>
        <time>2020-03-04T14:13:49Z</time>
      </trkpt>
      <trkpt lat="43.52528" lon="6.31133">
        <ele>368.2</ele>
        <time>2020-03-04T14:13:58Z</time>
      </trkpt>
      <trkpt lat="43.52527" lon="6.31121">
        <ele>368.8</ele>
        <time>2020-03-04T14:14:07Z</time>
      </trkpt>
      <trkpt lat="43.52525" lon="6.31107">
        <ele>369.8</ele>
        <time>2020-03-04T14:14:16Z</time>
      </trkpt>
      <trkpt lat="43.52523" lon="6.31094">
        <ele>370.7</ele>
        <time>2020-03-04T14:14:25Z</time>
      </trkpt>
      <trkpt lat="43.52523" lon="6.3108">
        <ele>371.2</ele>
        <time>2020-03-04T14:14:32Z</time>
      </trkpt>
      <trkpt lat="43.52524" lon="6.31066">
        <ele>372.6</ele>
        <time>2020-03-04T14:14:41Z</time>
      </trkpt>
      <trkpt lat="43.52527" lon="6.31053">
        <ele>374.1</ele>
        <time>2020-03-04T14:14:50Z</time>
      </trkpt>
      <trkpt lat="43.52534" lon="6.31043">
        <ele>375.5</ele>
        <time>2020-03-04T14:14:59Z</time>
      </trkpt>
      <trkpt lat="43.5254" lon="6.31033">
        <ele>376.3</ele>
        <time>2020-03-04T14:15:07Z</time>
      </trkpt>
      <trkpt lat="43.52546" lon="6.31023">
        <ele>377.2</ele>
        <time>2020-03-04T14:15:18Z</time>
      </trkpt>
      <trkpt lat="43.52556" lon="6.31021">
        <ele>378.2</ele>
        <time>2020-03-04T14:17:34Z</time>
      </trkpt>
      <trkpt lat="43.52564" lon="6.31014">
        <ele>378.8</ele>
        <time>2020-03-04T14:17:44Z</time>
      </trkpt>
      <trkpt lat="43.52572" lon="6.31006">
        <ele>378.8</ele>
        <time>2020-03-04T14:17:53Z</time>
      </trkpt>
      <trkpt lat="43.5258" lon="6.31">
        <ele>379</ele>
        <time>2020-03-04T14:18:02Z</time>
      </trkpt>
      <trkpt lat="43.52587" lon="6.30992">
        <ele>379.2</ele>
        <time>2020-03-04T14:18:12Z</time>
      </trkpt>
      <trkpt lat="43.52594" lon="6.30984">
        <ele>379.4</ele>
        <time>2020-03-04T14:18:21Z</time>
      </trkpt>
      <trkpt lat="43.52601" lon="6.30974">
        <ele>379.9</ele>
        <time>2020-03-04T14:18:30Z</time>
      </trkpt>
      <trkpt lat="43.52609" lon="6.30968">
        <ele>380.3</ele>
        <time>2020-03-04T14:18:38Z</time>
      </trkpt>
      <trkpt lat="43.52616" lon="6.3096">
        <ele>381.4</ele>
        <time>2020-03-04T14:18:52Z</time>
      </trkpt>
      <trkpt lat="43.52624" lon="6.30953">
        <ele>382</ele>
        <time>2020-03-04T14:19:02Z</time>
      </trkpt>
      <trkpt lat="43.52633" lon="6.30947">
        <ele>382.8</ele>
        <time>2020-03-04T14:19:10Z</time>
      </trkpt>
      <trkpt lat="43.5264" lon="6.30938">
        <ele>383.2</ele>
        <time>2020-03-04T14:19:20Z</time>
      </trkpt>
      <trkpt lat="43.52647" lon="6.3093">
        <ele>383.5</ele>
        <time>2020-03-04T14:19:27Z</time>
      </trkpt>
      <trkpt lat="43.52654" lon="6.30922">
        <ele>384</ele>
        <time>2020-03-04T14:19:35Z</time>
      </trkpt>
      <trkpt lat="43.52661" lon="6.30912">
        <ele>384.8</ele>
        <time>2020-03-04T14:19:44Z</time>
      </trkpt>
      <trkpt lat="43.52667" lon="6.30902">
        <ele>385.1</ele>
        <time>2020-03-04T14:19:52Z</time>
      </trkpt>
      <trkpt lat="43.52674" lon="6.30893">
        <ele>385.4</ele>
        <time>2020-03-04T14:20:00Z</time>
      </trkpt>
      <trkpt lat="43.5268" lon="6.30884">
        <ele>385.6</ele>
        <time>2020-03-04T14:20:10Z</time>
      </trkpt>
      <trkpt lat="43.52688" lon="6.30876">
        <ele>386.1</ele>
        <time>2020-03-04T14:20:18Z</time>
      </trkpt>
      <trkpt lat="43.52696" lon="6.30869">
        <ele>386.8</ele>
        <time>2020-03-04T14:20:30Z</time>
      </trkpt>
      <trkpt lat="43.52706" lon="6.30871">
        <ele>387.5</ele>
        <time>2020-03-04T14:20:38Z</time>
      </trkpt>
      <trkpt lat="43.52714" lon="6.30878">
        <ele>387.6</ele>
        <time>2020-03-04T14:20:46Z</time>
      </trkpt>
      <trkpt lat="43.52723" lon="6.30883">
        <ele>387.9</ele>
        <time>2020-03-04T14:21:17Z</time>
      </trkpt>
      <trkpt lat="43.52731" lon="6.30877">
        <ele>387.1</ele>
        <time>2020-03-04T14:21:29Z</time>
      </trkpt>
      <trkpt lat="43.52741" lon="6.30874">
        <ele>387.1</ele>
        <time>2020-03-04T14:21:42Z</time>
      </trkpt>
      <trkpt lat="43.52749" lon="6.30869">
        <ele>386.2</ele>
        <time>2020-03-04T14:21:55Z</time>
      </trkpt>
      <trkpt lat="43.52753" lon="6.30858">
        <ele>385.6</ele>
        <time>2020-03-04T14:22:03Z</time>
      </trkpt>
      <trkpt lat="43.52753" lon="6.30845">
        <ele>385</ele>
        <time>2020-03-04T14:22:13Z</time>
      </trkpt>
      <trkpt lat="43.52754" lon="6.30832">
        <ele>384.6</ele>
        <time>2020-03-04T14:22:22Z</time>
      </trkpt>
      <trkpt lat="43.52756" lon="6.30819">
        <ele>384.6</ele>
        <time>2020-03-04T14:22:29Z</time>
      </trkpt>
      <trkpt lat="43.52754" lon="6.30806">
        <ele>384.3</ele>
        <time>2020-03-04T14:22:37Z</time>
      </trkpt>
      <trkpt lat="43.52749" lon="6.30795">
        <ele>383.5</ele>
        <time>2020-03-04T14:22:45Z</time>
      </trkpt>
      <trkpt lat="43.52747" lon="6.30782">
        <ele>382.5</ele>
        <time>2020-03-04T14:22:53Z</time>
      </trkpt>
      <trkpt lat="43.52744" lon="6.30769">
        <ele>381.8</ele>
        <time>2020-03-04T14:23:01Z</time>
      </trkpt>
      <trkpt lat="43.52742" lon="6.30757">
        <ele>380.9</ele>
        <time>2020-03-04T14:23:10Z</time>
      </trkpt>
      <trkpt lat="43.52745" lon="6.30745">
        <ele>379.8</ele>
        <time>2020-03-04T14:23:19Z</time>
      </trkpt>
      <trkpt lat="43.5275" lon="6.30733">
        <ele>379.3</ele>
        <time>2020-03-04T14:23:26Z</time>
      </trkpt>
      <trkpt lat="43.52751" lon="6.30719">
        <ele>378.9</ele>
        <time>2020-03-04T14:23:34Z</time>
      </trkpt>
      <trkpt lat="43.5275" lon="6.30706">
        <ele>378.2</ele>
        <time>2020-03-04T14:23:43Z</time>
      </trkpt>
      <trkpt lat="43.52752" lon="6.30693">
        <ele>377.6</ele>
        <time>2020-03-04T14:23:52Z</time>
      </trkpt>
      <trkpt lat="43.52758" lon="6.30682">
        <ele>377.8</ele>
        <time>2020-03-04T14:24:01Z</time>
      </trkpt>
      <trkpt lat="43.52761" lon="6.30669">
        <ele>379.1</ele>
        <time>2020-03-04T14:24:12Z</time>
      </trkpt>
      <trkpt lat="43.52761" lon="6.30655">
        <ele>379.3</ele>
        <time>2020-03-04T14:24:21Z</time>
      </trkpt>
      <trkpt lat="43.52763" lon="6.30643">
        <ele>380.1</ele>
        <time>2020-03-04T14:24:32Z</time>
      </trkpt>
      <trkpt lat="43.52765" lon="6.30629">
        <ele>381.2</ele>
        <time>2020-03-04T14:24:43Z</time>
      </trkpt>
      <trkpt lat="43.52765" lon="6.30617">
        <ele>381.4</ele>
        <time>2020-03-04T14:24:52Z</time>
      </trkpt>
      <trkpt lat="43.52761" lon="6.30605">
        <ele>381.1</ele>
        <time>2020-03-04T14:25:03Z</time>
      </trkpt>
      <trkpt lat="43.52756" lon="6.30595">
        <ele>380.3</ele>
        <time>2020-03-04T14:25:13Z</time>
      </trkpt>
      <trkpt lat="43.52758" lon="6.30581">
        <ele>379.5</ele>
        <time>2020-03-04T14:25:22Z</time>
      </trkpt>
      <trkpt lat="43.52755" lon="6.30569">
        <ele>379</ele>
        <time>2020-03-04T14:25:31Z</time>
      </trkpt>
      <trkpt lat="43.52745" lon="6.30566">
        <ele>377.4</ele>
        <time>2020-03-04T14:25:42Z</time>
      </trkpt>
      <trkpt lat="43.52736" lon="6.30564">
        <ele>375.8</ele>
        <time>2020-03-04T14:25:54Z</time>
      </trkpt>
      <trkpt lat="43.52728" lon="6.30556">
        <ele>375.4</ele>
        <time>2020-03-04T14:26:03Z</time>
      </trkpt>
      <trkpt lat="43.52721" lon="6.30548">
        <ele>374.5</ele>
        <time>2020-03-04T14:26:11Z</time>
      </trkpt>
      <trkpt lat="43.52715" lon="6.30538">
        <ele>373.1</ele>
        <time>2020-03-04T14:26:21Z</time>
      </trkpt>
      <trkpt lat="43.52718" lon="6.30526">
        <ele>372.1</ele>
        <time>2020-03-04T14:26:32Z</time>
      </trkpt>
      <trkpt lat="43.52727" lon="6.30523">
        <ele>372.1</ele>
        <time>2020-03-04T14:26:42Z</time>
      </trkpt>
      <trkpt lat="43.52736" lon="6.3052">
        <ele>371.9</ele>
        <time>2020-03-04T14:26:51Z</time>
      </trkpt>
      <trkpt lat="43.52744" lon="6.30515">
        <ele>372.2</ele>
        <time>2020-03-04T14:26:59Z</time>
      </trkpt>
      <trkpt lat="43.52753" lon="6.3051">
        <ele>372</ele>
        <time>2020-03-04T14:27:07Z</time>
      </trkpt>
      <trkpt lat="43.52761" lon="6.30503">
        <ele>372.7</ele>
        <time>2020-03-04T14:27:17Z</time>
      </trkpt>
      <trkpt lat="43.5277" lon="6.30496">
        <ele>374.1</ele>
        <time>2020-03-04T14:27:29Z</time>
      </trkpt>
      <trkpt lat="43.52778" lon="6.30488">
        <ele>375</ele>
        <time>2020-03-04T14:27:37Z</time>
      </trkpt>
      <trkpt lat="43.52784" lon="6.30478">
        <ele>375.8</ele>
        <time>2020-03-04T14:27:46Z</time>
      </trkpt>
      <trkpt lat="43.52788" lon="6.30466">
        <ele>376.2</ele>
        <time>2020-03-04T14:27:56Z</time>
      </trkpt>
      <trkpt lat="43.52792" lon="6.30455">
        <ele>376.4</ele>
        <time>2020-03-04T14:28:06Z</time>
      </trkpt>
      <trkpt lat="43.52796" lon="6.30444">
        <ele>377</ele>
        <time>2020-03-04T14:28:15Z</time>
      </trkpt>
      <trkpt lat="43.52803" lon="6.30435">
        <ele>377.1</ele>
        <time>2020-03-04T14:28:23Z</time>
      </trkpt>
      <trkpt lat="43.52809" lon="6.30425">
        <ele>377.2</ele>
        <time>2020-03-04T14:28:32Z</time>
      </trkpt>
      <trkpt lat="43.52815" lon="6.30415">
        <ele>377.3</ele>
        <time>2020-03-04T14:28:40Z</time>
      </trkpt>
      <trkpt lat="43.52821" lon="6.30405">
        <ele>377.3</ele>
        <time>2020-03-04T14:28:48Z</time>
      </trkpt>
      <trkpt lat="43.52824" lon="6.30392">
        <ele>377.3</ele>
        <time>2020-03-04T14:28:56Z</time>
      </trkpt>
      <trkpt lat="43.52832" lon="6.30384">
        <ele>377.2</ele>
        <time>2020-03-04T14:29:03Z</time>
      </trkpt>
      <trkpt lat="43.52841" lon="6.30377">
        <ele>376.7</ele>
        <time>2020-03-04T14:29:11Z</time>
      </trkpt>
      <trkpt lat="43.52848" lon="6.3037">
        <ele>376.1</ele>
        <time>2020-03-04T14:29:19Z</time>
      </trkpt>
      <trkpt lat="43.52857" lon="6.30365">
        <ele>375.4</ele>
        <time>2020-03-04T14:29:27Z</time>
      </trkpt>
      <trkpt lat="43.52865" lon="6.3036">
        <ele>374.5</ele>
        <time>2020-03-04T14:29:35Z</time>
      </trkpt>
      <trkpt lat="43.52875" lon="6.3036">
        <ele>373.5</ele>
        <time>2020-03-04T14:29:43Z</time>
      </trkpt>
      <trkpt lat="43.52885" lon="6.30363">
        <ele>372.5</ele>
        <time>2020-03-04T14:29:52Z</time>
      </trkpt>
      <trkpt lat="43.52894" lon="6.30365">
        <ele>372.5</ele>
        <time>2020-03-04T14:30:00Z</time>
      </trkpt>
      <trkpt lat="43.52903" lon="6.3037">
        <ele>372.1</ele>
        <time>2020-03-04T14:30:10Z</time>
      </trkpt>
      <trkpt lat="43.52913" lon="6.30375">
        <ele>372.7</ele>
        <time>2020-03-04T14:30:19Z</time>
      </trkpt>
      <trkpt lat="43.52921" lon="6.30382">
        <ele>373.3</ele>
        <time>2020-03-04T14:30:28Z</time>
      </trkpt>
      <trkpt lat="43.52929" lon="6.30389">
        <ele>374.2</ele>
        <time>2020-03-04T14:30:36Z</time>
      </trkpt>
      <trkpt lat="43.52935" lon="6.30398">
        <ele>374.9</ele>
        <time>2020-03-04T14:30:45Z</time>
      </trkpt>
      <trkpt lat="43.52944" lon="6.30405">
        <ele>375.4</ele>
        <time>2020-03-04T14:30:54Z</time>
      </trkpt>
      <trkpt lat="43.52953" lon="6.30408">
        <ele>375.9</ele>
        <time>2020-03-04T14:31:03Z</time>
      </trkpt>
      <trkpt lat="43.52963" lon="6.30411">
        <ele>376.1</ele>
        <time>2020-03-04T14:31:14Z</time>
      </trkpt>
      <trkpt lat="43.5297" lon="6.30419">
        <ele>377.3</ele>
        <time>2020-03-04T14:31:25Z</time>
      </trkpt>
      <trkpt lat="43.52977" lon="6.30428">
        <ele>378.4</ele>
        <time>2020-03-04T14:31:36Z</time>
      </trkpt>
      <trkpt lat="43.5298" lon="6.3044">
        <ele>378.9</ele>
        <time>2020-03-04T14:31:54Z</time>
      </trkpt>
      <trkpt lat="43.52987" lon="6.30448">
        <ele>378.3</ele>
        <time>2020-03-04T14:35:01Z</time>
      </trkpt>
      <trkpt lat="43.52996" lon="6.3045">
        <ele>377.4</ele>
        <time>2020-03-04T14:35:16Z</time>
      </trkpt>
      <trkpt lat="43.53003" lon="6.30441">
        <ele>376.3</ele>
        <time>2020-03-04T14:35:27Z</time>
      </trkpt>
      <trkpt lat="43.53008" lon="6.30431">
        <ele>375.7</ele>
        <time>2020-03-04T14:35:37Z</time>
      </trkpt>
      <trkpt lat="43.53013" lon="6.3042">
        <ele>374.8</ele>
        <time>2020-03-04T14:35:46Z</time>
      </trkpt>
      <trkpt lat="43.53012" lon="6.30407">
        <ele>373.8</ele>
        <time>2020-03-04T14:35:56Z</time>
      </trkpt>
      <trkpt lat="43.53012" lon="6.30393">
        <ele>373.3</ele>
        <time>2020-03-04T14:36:05Z</time>
      </trkpt>
      <trkpt lat="43.5301" lon="6.3038">
        <ele>372.9</ele>
        <time>2020-03-04T14:36:14Z</time>
      </trkpt>
      <trkpt lat="43.53012" lon="6.30367">
        <ele>372.2</ele>
        <time>2020-03-04T14:36:25Z</time>
      </trkpt>
      <trkpt lat="43.53016" lon="6.30355">
        <ele>371.6</ele>
        <time>2020-03-04T14:36:35Z</time>
      </trkpt>
      <trkpt lat="43.53019" lon="6.30342">
        <ele>370.8</ele>
        <time>2020-03-04T14:36:45Z</time>
      </trkpt>
      <trkpt lat="43.53023" lon="6.3033">
        <ele>369.6</ele>
        <time>2020-03-04T14:36:56Z</time>
      </trkpt>
      <trkpt lat="43.53028" lon="6.30318">
        <ele>368.4</ele>
        <time>2020-03-04T14:37:05Z</time>
      </trkpt>
      <trkpt lat="43.53031" lon="6.30305">
        <ele>367.4</ele>
        <time>2020-03-04T14:37:15Z</time>
      </trkpt>
      <trkpt lat="43.53033" lon="6.30293">
        <ele>366.6</ele>
        <time>2020-03-04T14:37:25Z</time>
      </trkpt>
      <trkpt lat="43.53034" lon="6.30281">
        <ele>365.4</ele>
        <time>2020-03-04T14:37:34Z</time>
      </trkpt>
      <trkpt lat="43.53032" lon="6.30268">
        <ele>364.4</ele>
        <time>2020-03-04T14:37:45Z</time>
      </trkpt>
      <trkpt lat="43.53035" lon="6.30256">
        <ele>363.9</ele>
        <time>2020-03-04T14:37:54Z</time>
      </trkpt>
      <trkpt lat="43.53044" lon="6.30251">
        <ele>362.9</ele>
        <time>2020-03-04T14:38:05Z</time>
      </trkpt>
      <trkpt lat="43.53054" lon="6.3025">
        <ele>362.6</ele>
        <time>2020-03-04T14:38:14Z</time>
      </trkpt>
      <trkpt lat="43.53064" lon="6.30252">
        <ele>362.1</ele>
        <time>2020-03-04T14:38:23Z</time>
      </trkpt>
      <trkpt lat="43.53074" lon="6.30254">
        <ele>361.6</ele>
        <time>2020-03-04T14:38:31Z</time>
      </trkpt>
      <trkpt lat="43.53083" lon="6.30256">
        <ele>360.8</ele>
        <time>2020-03-04T14:38:41Z</time>
      </trkpt>
      <trkpt lat="43.53092" lon="6.30259">
        <ele>359.6</ele>
        <time>2020-03-04T14:38:51Z</time>
      </trkpt>
      <trkpt lat="43.53101" lon="6.30262">
        <ele>358.3</ele>
        <time>2020-03-04T14:39:01Z</time>
      </trkpt>
      <trkpt lat="43.5311" lon="6.30266">
        <ele>357.7</ele>
        <time>2020-03-04T14:39:10Z</time>
      </trkpt>
      <trkpt lat="43.53119" lon="6.30269">
        <ele>356.9</ele>
        <time>2020-03-04T14:39:22Z</time>
      </trkpt>
      <trkpt lat="43.53128" lon="6.30273">
        <ele>356.5</ele>
        <time>2020-03-04T14:39:32Z</time>
      </trkpt>
      <trkpt lat="43.53137" lon="6.30277">
        <ele>356.5</ele>
        <time>2020-03-04T14:39:42Z</time>
      </trkpt>
      <trkpt lat="43.53145" lon="6.30282">
        <ele>356.2</ele>
        <time>2020-03-04T14:39:54Z</time>
      </trkpt>
      <trkpt lat="43.53154" lon="6.30288">
        <ele>355.9</ele>
        <time>2020-03-04T14:40:04Z</time>
      </trkpt>
      <trkpt lat="43.5316" lon="6.30298">
        <ele>355.9</ele>
        <time>2020-03-04T14:40:13Z</time>
      </trkpt>
      <trkpt lat="43.53168" lon="6.30305">
        <ele>355.5</ele>
        <time>2020-03-04T14:40:23Z</time>
      </trkpt>
      <trkpt lat="43.53176" lon="6.30312">
        <ele>355.9</ele>
        <time>2020-03-04T14:40:32Z</time>
      </trkpt>
      <trkpt lat="43.53184" lon="6.30318">
        <ele>356</ele>
        <time>2020-03-04T14:40:41Z</time>
      </trkpt>
      <trkpt lat="43.53193" lon="6.30323">
        <ele>356</ele>
        <time>2020-03-04T14:40:49Z</time>
      </trkpt>
      <trkpt lat="43.53202" lon="6.30324">
        <ele>357.1</ele>
        <time>2020-03-04T14:40:59Z</time>
      </trkpt>
      <trkpt lat="43.53212" lon="6.30326">
        <ele>358.2</ele>
        <time>2020-03-04T14:41:09Z</time>
      </trkpt>
      <trkpt lat="43.53221" lon="6.30325">
        <ele>359.9</ele>
        <time>2020-03-04T14:41:22Z</time>
      </trkpt>
      <trkpt lat="43.53232" lon="6.30324">
        <ele>360.8</ele>
        <time>2020-03-04T14:41:31Z</time>
      </trkpt>
      <trkpt lat="43.53241" lon="6.30324">
        <ele>361.2</ele>
        <time>2020-03-04T14:41:40Z</time>
      </trkpt>
      <trkpt lat="43.5325" lon="6.30321">
        <ele>361.9</ele>
        <time>2020-03-04T14:41:48Z</time>
      </trkpt>
      <trkpt lat="43.53258" lon="6.30314">
        <ele>361.7</ele>
        <time>2020-03-04T14:41:56Z</time>
      </trkpt>
      <trkpt lat="43.53266" lon="6.30307">
        <ele>361</ele>
        <time>2020-03-04T14:42:05Z</time>
      </trkpt>
      <trkpt lat="43.53274" lon="6.30299">
        <ele>360.7</ele>
        <time>2020-03-04T14:42:22Z</time>
      </trkpt>
      <trkpt lat="43.53281" lon="6.30292">
        <ele>359.9</ele>
        <time>2020-03-04T14:42:32Z</time>
      </trkpt>
      <trkpt lat="43.53288" lon="6.30285">
        <ele>359.1</ele>
        <time>2020-03-04T14:42:42Z</time>
      </trkpt>
      <trkpt lat="43.53297" lon="6.30278">
        <ele>358.8</ele>
        <time>2020-03-04T14:42:50Z</time>
      </trkpt>
      <trkpt lat="43.53305" lon="6.30271">
        <ele>358.2</ele>
        <time>2020-03-04T14:42:59Z</time>
      </trkpt>
      <trkpt lat="43.53311" lon="6.3026">
        <ele>357.6</ele>
        <time>2020-03-04T14:43:07Z</time>
      </trkpt>
      <trkpt lat="43.53316" lon="6.30249">
        <ele>357.1</ele>
        <time>2020-03-04T14:43:16Z</time>
      </trkpt>
      <trkpt lat="43.53322" lon="6.3024">
        <ele>356.4</ele>
        <time>2020-03-04T14:43:24Z</time>
      </trkpt>
      <trkpt lat="43.53326" lon="6.30229">
        <ele>356</ele>
        <time>2020-03-04T14:43:34Z</time>
      </trkpt>
      <trkpt lat="43.53333" lon="6.30222">
        <ele>356.7</ele>
        <time>2020-03-04T14:43:54Z</time>
      </trkpt>
      <trkpt lat="43.53341" lon="6.30215">
        <ele>360.8</ele>
        <time>2020-03-04T14:44:25Z</time>
      </trkpt>
      <trkpt lat="43.53337" lon="6.30204">
        <ele>360.6</ele>
        <time>2020-03-04T14:45:29Z</time>
      </trkpt>
      <trkpt lat="43.53328" lon="6.30201">
        <ele>357.4</ele>
        <time>2020-03-04T14:45:51Z</time>
      </trkpt>
      <trkpt lat="43.53319" lon="6.30199">
        <ele>355.4</ele>
        <time>2020-03-04T14:46:18Z</time>
      </trkpt>
      <trkpt lat="43.53311" lon="6.30193">
        <ele>355.5</ele>
        <time>2020-03-04T14:46:27Z</time>
      </trkpt>
      <trkpt lat="43.53302" lon="6.30189">
        <ele>355.4</ele>
        <time>2020-03-04T14:46:36Z</time>
      </trkpt>
      <trkpt lat="43.53292" lon="6.30189">
        <ele>355.1</ele>
        <time>2020-03-04T14:46:46Z</time>
      </trkpt>
      <trkpt lat="43.53283" lon="6.30186">
        <ele>354.9</ele>
        <time>2020-03-04T14:46:54Z</time>
      </trkpt>
      <trkpt lat="43.53273" lon="6.30183">
        <ele>354.7</ele>
        <time>2020-03-04T14:47:02Z</time>
      </trkpt>
      <trkpt lat="43.53264" lon="6.30177">
        <ele>354.3</ele>
        <time>2020-03-04T14:47:11Z</time>
      </trkpt>
      <trkpt lat="43.53256" lon="6.30169">
        <ele>354.3</ele>
        <time>2020-03-04T14:47:19Z</time>
      </trkpt>
      <trkpt lat="43.53249" lon="6.3016">
        <ele>354.1</ele>
        <time>2020-03-04T14:47:26Z</time>
      </trkpt>
      <trkpt lat="43.53243" lon="6.30152">
        <ele>354.2</ele>
        <time>2020-03-04T14:47:34Z</time>
      </trkpt>
      <trkpt lat="43.53236" lon="6.30142">
        <ele>354</ele>
        <time>2020-03-04T14:47:42Z</time>
      </trkpt>
      <trkpt lat="43.53229" lon="6.30134">
        <ele>353.8</ele>
        <time>2020-03-04T14:47:53Z</time>
      </trkpt>
      <trkpt lat="43.53224" lon="6.30123">
        <ele>353.5</ele>
        <time>2020-03-04T14:48:04Z</time>
      </trkpt>
      <trkpt lat="43.53217" lon="6.30115">
        <ele>352.9</ele>
        <time>2020-03-04T14:48:13Z</time>
      </trkpt>
      <trkpt lat="43.5321" lon="6.30105">
        <ele>352.7</ele>
        <time>2020-03-04T14:48:23Z</time>
      </trkpt>
      <trkpt lat="43.53203" lon="6.30096">
        <ele>352.5</ele>
        <time>2020-03-04T14:48:32Z</time>
      </trkpt>
      <trkpt lat="43.53197" lon="6.30084">
        <ele>351.7</ele>
        <time>2020-03-04T14:48:48Z</time>
      </trkpt>
      <trkpt lat="43.5319" lon="6.30075">
        <ele>352.2</ele>
        <time>2020-03-04T14:48:58Z</time>
      </trkpt>
      <trkpt lat="43.53184" lon="6.30064">
        <ele>351.7</ele>
        <time>2020-03-04T14:49:13Z</time>
      </trkpt>
      <trkpt lat="43.53177" lon="6.30055">
        <ele>351.3</ele>
        <time>2020-03-04T14:49:20Z</time>
      </trkpt>
      <trkpt lat="43.53171" lon="6.30045">
        <ele>351</ele>
        <time>2020-03-04T14:49:27Z</time>
      </trkpt>
      <trkpt lat="43.53163" lon="6.30037">
        <ele>350.7</ele>
        <time>2020-03-04T14:49:35Z</time>
      </trkpt>
      <trkpt lat="43.53156" lon="6.30028">
        <ele>350.1</ele>
        <time>2020-03-04T14:49:45Z</time>
      </trkpt>
      <trkpt lat="43.53148" lon="6.30021">
        <ele>349.9</ele>
        <time>2020-03-04T14:49:53Z</time>
      </trkpt>
      <trkpt lat="43.5314" lon="6.30013">
        <ele>349.8</ele>
        <time>2020-03-04T14:50:01Z</time>
      </trkpt>
      <trkpt lat="43.53134" lon="6.30003">
        <ele>349.5</ele>
        <time>2020-03-04T14:50:09Z</time>
      </trkpt>
      <trkpt lat="43.53128" lon="6.29993">
        <ele>349.5</ele>
        <time>2020-03-04T14:50:17Z</time>
      </trkpt>
      <trkpt lat="43.5312" lon="6.29985">
        <ele>349.1</ele>
        <time>2020-03-04T14:50:25Z</time>
      </trkpt>
      <trkpt lat="43.53113" lon="6.29977">
        <ele>348.5</ele>
        <time>2020-03-04T14:50:34Z</time>
      </trkpt>
      <trkpt lat="43.53105" lon="6.29969">
        <ele>348</ele>
        <time>2020-03-04T14:50:42Z</time>
      </trkpt>
      <trkpt lat="43.53097" lon="6.29963">
        <ele>347.7</ele>
        <time>2020-03-04T14:50:50Z</time>
      </trkpt>
      <trkpt lat="43.5309" lon="6.29954">
        <ele>347.2</ele>
        <time>2020-03-04T14:50:59Z</time>
      </trkpt>
      <trkpt lat="43.53082" lon="6.29949">
        <ele>346.3</ele>
        <time>2020-03-04T14:51:43Z</time>
      </trkpt>
      <trkpt lat="43.53074" lon="6.29941">
        <ele>346.3</ele>
        <time>2020-03-04T14:52:30Z</time>
      </trkpt>
      <trkpt lat="43.53066" lon="6.29933">
        <ele>345.9</ele>
        <time>2020-03-04T14:52:41Z</time>
      </trkpt>
      <trkpt lat="43.53059" lon="6.29924">
        <ele>345.2</ele>
        <time>2020-03-04T14:52:51Z</time>
      </trkpt>
      <trkpt lat="43.53052" lon="6.29915">
        <ele>344.5</ele>
        <time>2020-03-04T14:53:01Z</time>
      </trkpt>
      <trkpt lat="43.53044" lon="6.29907">
        <ele>343.7</ele>
        <time>2020-03-04T14:53:12Z</time>
      </trkpt>
      <trkpt lat="43.53036" lon="6.29899">
        <ele>343</ele>
        <time>2020-03-04T14:53:23Z</time>
      </trkpt>
      <trkpt lat="43.5303" lon="6.2989">
        <ele>342.1</ele>
        <time>2020-03-04T14:53:34Z</time>
      </trkpt>
      <trkpt lat="43.53023" lon="6.29882">
        <ele>341.5</ele>
        <time>2020-03-04T14:53:43Z</time>
      </trkpt>
      <trkpt lat="43.53016" lon="6.29875">
        <ele>341</ele>
        <time>2020-03-04T14:53:53Z</time>
      </trkpt>
      <trkpt lat="43.53008" lon="6.29866">
        <ele>340.2</ele>
        <time>2020-03-04T14:54:04Z</time>
      </trkpt>
      <trkpt lat="43.53004" lon="6.29855">
        <ele>339.5</ele>
        <time>2020-03-04T14:54:14Z</time>
      </trkpt>
      <trkpt lat="43.52999" lon="6.29844">
        <ele>338.7</ele>
        <time>2020-03-04T14:54:24Z</time>
      </trkpt>
      <trkpt lat="43.52995" lon="6.29833">
        <ele>338</ele>
        <time>2020-03-04T14:54:33Z</time>
      </trkpt>
      <trkpt lat="43.52987" lon="6.29826">
        <ele>337.5</ele>
        <time>2020-03-04T14:54:43Z</time>
      </trkpt>
      <trkpt lat="43.52979" lon="6.29819">
        <ele>337</ele>
        <time>2020-03-04T14:54:53Z</time>
      </trkpt>
      <trkpt lat="43.52969" lon="6.29818">
        <ele>336.7</ele>
        <time>2020-03-04T14:55:02Z</time>
      </trkpt>
      <trkpt lat="43.5296" lon="6.29813">
        <ele>337.1</ele>
        <time>2020-03-04T14:55:11Z</time>
      </trkpt>
      <trkpt lat="43.52953" lon="6.29806">
        <ele>336.9</ele>
        <time>2020-03-04T14:55:19Z</time>
      </trkpt>
      <trkpt lat="43.52945" lon="6.29798">
        <ele>336.8</ele>
        <time>2020-03-04T14:55:26Z</time>
      </trkpt>
      <trkpt lat="43.5294" lon="6.29787">
        <ele>336.8</ele>
        <time>2020-03-04T14:55:37Z</time>
      </trkpt>
      <trkpt lat="43.52931" lon="6.29784">
        <ele>336.9</ele>
        <time>2020-03-04T14:55:46Z</time>
      </trkpt>
      <trkpt lat="43.52922" lon="6.29779">
        <ele>337.1</ele>
        <time>2020-03-04T14:55:58Z</time>
      </trkpt>
      <trkpt lat="43.52918" lon="6.29767">
        <ele>338.1</ele>
        <time>2020-03-04T14:56:26Z</time>
      </trkpt>
      <trkpt lat="43.52916" lon="6.29754">
        <ele>338.2</ele>
        <time>2020-03-04T14:56:40Z</time>
      </trkpt>
      <trkpt lat="43.52913" lon="6.29741">
        <ele>339</ele>
        <time>2020-03-04T14:56:50Z</time>
      </trkpt>
      <trkpt lat="43.52906" lon="6.29732">
        <ele>339.3</ele>
        <time>2020-03-04T14:57:05Z</time>
      </trkpt>
      <trkpt lat="43.52899" lon="6.29722">
        <ele>340</ele>
        <time>2020-03-04T14:57:15Z</time>
      </trkpt>
      <trkpt lat="43.52895" lon="6.29709">
        <ele>341.3</ele>
        <time>2020-03-04T14:57:26Z</time>
      </trkpt>
      <trkpt lat="43.52893" lon="6.29697">
        <ele>341.9</ele>
        <time>2020-03-04T14:57:35Z</time>
      </trkpt>
      <trkpt lat="43.52887" lon="6.29687">
        <ele>343.1</ele>
        <time>2020-03-04T14:57:48Z</time>
      </trkpt>
      <trkpt lat="43.52883" lon="6.29675">
        <ele>344.1</ele>
        <time>2020-03-04T14:57:59Z</time>
      </trkpt>
      <trkpt lat="43.52879" lon="6.29664">
        <ele>345</ele>
        <time>2020-03-04T14:58:09Z</time>
      </trkpt>
      <trkpt lat="43.52875" lon="6.29652">
        <ele>345.7</ele>
        <time>2020-03-04T14:58:18Z</time>
      </trkpt>
      <trkpt lat="43.52869" lon="6.29641">
        <ele>346</ele>
        <time>2020-03-04T14:58:27Z</time>
      </trkpt>
      <trkpt lat="43.52864" lon="6.2963">
        <ele>345.9</ele>
        <time>2020-03-04T14:58:37Z</time>
      </trkpt>
      <trkpt lat="43.5286" lon="6.29619">
        <ele>346</ele>
        <time>2020-03-04T14:58:47Z</time>
      </trkpt>
      <trkpt lat="43.52853" lon="6.2961">
        <ele>346.1</ele>
        <time>2020-03-04T14:58:56Z</time>
      </trkpt>
      <trkpt lat="43.52845" lon="6.29603">
        <ele>345.9</ele>
        <time>2020-03-04T14:59:06Z</time>
      </trkpt>
      <trkpt lat="43.52838" lon="6.29595">
        <ele>345.8</ele>
        <time>2020-03-04T14:59:20Z</time>
      </trkpt>
      <trkpt lat="43.52832" lon="6.29583">
        <ele>346.2</ele>
        <time>2020-03-04T14:59:32Z</time>
      </trkpt>
      <trkpt lat="43.52828" lon="6.29572">
        <ele>346.5</ele>
        <time>2020-03-04T14:59:42Z</time>
      </trkpt>
      <trkpt lat="43.52824" lon="6.2956">
        <ele>346.5</ele>
        <time>2020-03-04T14:59:52Z</time>
      </trkpt>
      <trkpt lat="43.5282" lon="6.29548">
        <ele>346.4</ele>
        <time>2020-03-04T15:00:01Z</time>
      </trkpt>
      <trkpt lat="43.52815" lon="6.29536">
        <ele>345.9</ele>
        <time>2020-03-04T15:00:11Z</time>
      </trkpt>
      <trkpt lat="43.52811" lon="6.29524">
        <ele>345.2</ele>
        <time>2020-03-04T15:00:23Z</time>
      </trkpt>
      <trkpt lat="43.52806" lon="6.29512">
        <ele>344.7</ele>
        <time>2020-03-04T15:00:33Z</time>
      </trkpt>
      <trkpt lat="43.52803" lon="6.295">
        <ele>344.7</ele>
        <time>2020-03-04T15:00:48Z</time>
      </trkpt>
      <trkpt lat="43.528" lon="6.29488">
        <ele>344.3</ele>
        <time>2020-03-04T15:01:07Z</time>
      </trkpt>
      <trkpt lat="43.52798" lon="6.29475">
        <ele>343.9</ele>
        <time>2020-03-04T15:01:20Z</time>
      </trkpt>
      <trkpt lat="43.52796" lon="6.29462">
        <ele>343.5</ele>
        <time>2020-03-04T15:01:29Z</time>
      </trkpt>
      <trkpt lat="43.52795" lon="6.29449">
        <ele>343.6</ele>
        <time>2020-03-04T15:01:37Z</time>
      </trkpt>
      <trkpt lat="43.52793" lon="6.29437">
        <ele>343.4</ele>
        <time>2020-03-04T15:01:47Z</time>
      </trkpt>
      <trkpt lat="43.5279" lon="6.29424">
        <ele>343.3</ele>
        <time>2020-03-04T15:01:56Z</time>
      </trkpt>
      <trkpt lat="43.52788" lon="6.29412">
        <ele>343.1</ele>
        <time>2020-03-04T15:02:04Z</time>
      </trkpt>
      <trkpt lat="43.52782" lon="6.29401">
        <ele>342.7</ele>
        <time>2020-03-04T15:02:14Z</time>
      </trkpt>
      <trkpt lat="43.52777" lon="6.29391">
        <ele>342.2</ele>
        <time>2020-03-04T15:02:24Z</time>
      </trkpt>
      <trkpt lat="43.52773" lon="6.2938">
        <ele>342</ele>
        <time>2020-03-04T15:02:32Z</time>
      </trkpt>
      <trkpt lat="43.5277" lon="6.29367">
        <ele>340.9</ele>
        <time>2020-03-04T15:03:11Z</time>
      </trkpt>
      <trkpt lat="43.52768" lon="6.29355">
        <ele>339.2</ele>
        <time>2020-03-04T15:03:23Z</time>
      </trkpt>
      <trkpt lat="43.5277" lon="6.29343">
        <ele>338</ele>
        <time>2020-03-04T15:03:35Z</time>
      </trkpt>
      <trkpt lat="43.52769" lon="6.2933">
        <ele>336.9</ele>
        <time>2020-03-04T15:03:48Z</time>
      </trkpt>
      <trkpt lat="43.52766" lon="6.29319">
        <ele>335.9</ele>
        <time>2020-03-04T15:04:00Z</time>
      </trkpt>
      <trkpt lat="43.52761" lon="6.29307">
        <ele>335.2</ele>
        <time>2020-03-04T15:04:10Z</time>
      </trkpt>
      <trkpt lat="43.52757" lon="6.29295">
        <ele>334.8</ele>
        <time>2020-03-04T15:04:20Z</time>
      </trkpt>
      <trkpt lat="43.52753" lon="6.29283">
        <ele>334.7</ele>
        <time>2020-03-04T15:04:31Z</time>
      </trkpt>
      <trkpt lat="43.52751" lon="6.2927">
        <ele>335</ele>
        <time>2020-03-04T15:04:41Z</time>
      </trkpt>
      <trkpt lat="43.52745" lon="6.29261">
        <ele>336.1</ele>
        <time>2020-03-04T15:04:51Z</time>
      </trkpt>
      <trkpt lat="43.52745" lon="6.29247">
        <ele>337.4</ele>
        <time>2020-03-04T15:05:01Z</time>
      </trkpt>
      <trkpt lat="43.52739" lon="6.29237">
        <ele>338.6</ele>
        <time>2020-03-04T15:05:10Z</time>
      </trkpt>
      <trkpt lat="43.52732" lon="6.29227">
        <ele>339.7</ele>
        <time>2020-03-04T15:05:20Z</time>
      </trkpt>
      <trkpt lat="43.52729" lon="6.29215">
        <ele>341.2</ele>
        <time>2020-03-04T15:05:31Z</time>
      </trkpt>
      <trkpt lat="43.52728" lon="6.29202">
        <ele>341.8</ele>
        <time>2020-03-04T15:05:41Z</time>
      </trkpt>
      <trkpt lat="43.52727" lon="6.29189">
        <ele>342.7</ele>
        <time>2020-03-04T15:05:52Z</time>
      </trkpt>
      <trkpt lat="43.52723" lon="6.29178">
        <ele>343.5</ele>
        <time>2020-03-04T15:06:02Z</time>
      </trkpt>
      <trkpt lat="43.52717" lon="6.29166">
        <ele>343.9</ele>
        <time>2020-03-04T15:06:11Z</time>
      </trkpt>
      <trkpt lat="43.52714" lon="6.29154">
        <ele>344.3</ele>
        <time>2020-03-04T15:06:21Z</time>
      </trkpt>
      <trkpt lat="43.52711" lon="6.29142">
        <ele>344.2</ele>
        <time>2020-03-04T15:06:29Z</time>
      </trkpt>
      <trkpt lat="43.52706" lon="6.29129">
        <ele>344</ele>
        <time>2020-03-04T15:06:37Z</time>
      </trkpt>
      <trkpt lat="43.52703" lon="6.29117">
        <ele>343.5</ele>
        <time>2020-03-04T15:06:46Z</time>
      </trkpt>
      <trkpt lat="43.52698" lon="6.29105">
        <ele>343.2</ele>
        <time>2020-03-04T15:06:55Z</time>
      </trkpt>
      <trkpt lat="43.52697" lon="6.29092">
        <ele>343.1</ele>
        <time>2020-03-04T15:07:05Z</time>
      </trkpt>
      <trkpt lat="43.52695" lon="6.29079">
        <ele>342.5</ele>
        <time>2020-03-04T15:07:15Z</time>
      </trkpt>
      <trkpt lat="43.52692" lon="6.29067">
        <ele>342.4</ele>
        <time>2020-03-04T15:07:25Z</time>
      </trkpt>
      <trkpt lat="43.5269" lon="6.29053">
        <ele>342.5</ele>
        <time>2020-03-04T15:07:34Z</time>
      </trkpt>
      <trkpt lat="43.52688" lon="6.29041">
        <ele>342.2</ele>
        <time>2020-03-04T15:07:45Z</time>
      </trkpt>
      <trkpt lat="43.52685" lon="6.29029">
        <ele>341.9</ele>
        <time>2020-03-04T15:07:55Z</time>
      </trkpt>
      <trkpt lat="43.52681" lon="6.29017">
        <ele>341.5</ele>
        <time>2020-03-04T15:08:03Z</time>
      </trkpt>
      <trkpt lat="43.52677" lon="6.29004">
        <ele>340.8</ele>
        <time>2020-03-04T15:08:11Z</time>
      </trkpt>
      <trkpt lat="43.52671" lon="6.28994">
        <ele>340.8</ele>
        <time>2020-03-04T15:08:18Z</time>
      </trkpt>
      <trkpt lat="43.52665" lon="6.28984">
        <ele>340.3</ele>
        <time>2020-03-04T15:08:27Z</time>
      </trkpt>
      <trkpt lat="43.52659" lon="6.28975">
        <ele>339.8</ele>
        <time>2020-03-04T15:08:36Z</time>
      </trkpt>
      <trkpt lat="43.52653" lon="6.28964">
        <ele>338.9</ele>
        <time>2020-03-04T15:08:48Z</time>
      </trkpt>
      <trkpt lat="43.52648" lon="6.28952">
        <ele>338</ele>
        <time>2020-03-04T15:08:55Z</time>
      </trkpt>
      <trkpt lat="43.52649" lon="6.28939">
        <ele>337.2</ele>
        <time>2020-03-04T15:09:04Z</time>
      </trkpt>
      <trkpt lat="43.52646" lon="6.28926">
        <ele>336.6</ele>
        <time>2020-03-04T15:09:13Z</time>
      </trkpt>
      <trkpt lat="43.52644" lon="6.28913">
        <ele>335.5</ele>
        <time>2020-03-04T15:09:22Z</time>
      </trkpt>
      <trkpt lat="43.52636" lon="6.28905">
        <ele>334.7</ele>
        <time>2020-03-04T15:09:31Z</time>
      </trkpt>
      <trkpt lat="43.52631" lon="6.28895">
        <ele>333.7</ele>
        <time>2020-03-04T15:09:40Z</time>
      </trkpt>
      <trkpt lat="43.52623" lon="6.28888">
        <ele>332.7</ele>
        <time>2020-03-04T15:09:50Z</time>
      </trkpt>
      <trkpt lat="43.52618" lon="6.28877">
        <ele>331.6</ele>
        <time>2020-03-04T15:09:59Z</time>
      </trkpt>
      <trkpt lat="43.52611" lon="6.28867">
        <ele>330.8</ele>
        <time>2020-03-04T15:10:08Z</time>
      </trkpt>
      <trkpt lat="43.52607" lon="6.28855">
        <ele>330</ele>
        <time>2020-03-04T15:10:16Z</time>
      </trkpt>
      <trkpt lat="43.52603" lon="6.28843">
        <ele>329.2</ele>
        <time>2020-03-04T15:10:24Z</time>
      </trkpt>
      <trkpt lat="43.52598" lon="6.28832">
        <ele>328</ele>
        <time>2020-03-04T15:10:35Z</time>
      </trkpt>
      <trkpt lat="43.52594" lon="6.2882">
        <ele>327</ele>
        <time>2020-03-04T15:10:44Z</time>
      </trkpt>
      <trkpt lat="43.52589" lon="6.28809">
        <ele>325.8</ele>
        <time>2020-03-04T15:10:55Z</time>
      </trkpt>
      <trkpt lat="43.52584" lon="6.28798">
        <ele>324.4</ele>
        <time>2020-03-04T15:11:06Z</time>
      </trkpt>
      <trkpt lat="43.52579" lon="6.28787">
        <ele>323.4</ele>
        <time>2020-03-04T15:11:18Z</time>
      </trkpt>
      <trkpt lat="43.52576" lon="6.28775">
        <ele>321.8</ele>
        <time>2020-03-04T15:11:29Z</time>
      </trkpt>
      <trkpt lat="43.52572" lon="6.28763">
        <ele>320.6</ele>
        <time>2020-03-04T15:11:40Z</time>
      </trkpt>
      <trkpt lat="43.52575" lon="6.2875">
        <ele>319.4</ele>
        <time>2020-03-04T15:11:51Z</time>
      </trkpt>
      <trkpt lat="43.52576" lon="6.28737">
        <ele>317.8</ele>
        <time>2020-03-04T15:12:04Z</time>
      </trkpt>
      <trkpt lat="43.52575" lon="6.28724">
        <ele>316</ele>
        <time>2020-03-04T15:12:20Z</time>
      </trkpt>
      <trkpt lat="43.52575" lon="6.28711">
        <ele>315.6</ele>
        <time>2020-03-04T15:12:29Z</time>
      </trkpt>
      <trkpt lat="43.52577" lon="6.28699">
        <ele>314.4</ele>
        <time>2020-03-04T15:12:40Z</time>
      </trkpt>
      <trkpt lat="43.52579" lon="6.28687">
        <ele>313.2</ele>
        <time>2020-03-04T15:12:51Z</time>
      </trkpt>
      <trkpt lat="43.52581" lon="6.28674">
        <ele>312.1</ele>
        <time>2020-03-04T15:13:04Z</time>
      </trkpt>
      <trkpt lat="43.52582" lon="6.28662">
        <ele>310.8</ele>
        <time>2020-03-04T15:13:18Z</time>
      </trkpt>
      <trkpt lat="43.52584" lon="6.2865">
        <ele>309.7</ele>
        <time>2020-03-04T15:13:30Z</time>
      </trkpt>
      <trkpt lat="43.52588" lon="6.28638">
        <ele>308.8</ele>
        <time>2020-03-04T15:13:39Z</time>
      </trkpt>
      <trkpt lat="43.52592" lon="6.28627">
        <ele>307.8</ele>
        <time>2020-03-04T15:13:49Z</time>
      </trkpt>
      <trkpt lat="43.52598" lon="6.28617">
        <ele>307.2</ele>
        <time>2020-03-04T15:14:01Z</time>
      </trkpt>
      <trkpt lat="43.52605" lon="6.28608">
        <ele>306.2</ele>
        <time>2020-03-04T15:14:13Z</time>
      </trkpt>
      <trkpt lat="43.52613" lon="6.286">
        <ele>305.7</ele>
        <time>2020-03-04T15:14:24Z</time>
      </trkpt>
      <trkpt lat="43.5262" lon="6.28591">
        <ele>304.8</ele>
        <time>2020-03-04T15:14:34Z</time>
      </trkpt>
      <trkpt lat="43.52627" lon="6.28584">
        <ele>303.8</ele>
        <time>2020-03-04T15:15:02Z</time>
      </trkpt>
      <trkpt lat="43.52632" lon="6.28573">
        <ele>303.1</ele>
        <time>2020-03-04T15:15:43Z</time>
      </trkpt>
      <trkpt lat="43.52636" lon="6.28561">
        <ele>303</ele>
        <time>2020-03-04T15:15:52Z</time>
      </trkpt>
      <trkpt lat="43.52638" lon="6.28548">
        <ele>302.3</ele>
        <time>2020-03-04T15:16:02Z</time>
      </trkpt>
      <trkpt lat="43.52638" lon="6.28535">
        <ele>302</ele>
        <time>2020-03-04T15:16:12Z</time>
      </trkpt>
      <trkpt lat="43.52635" lon="6.28524">
        <ele>301.2</ele>
        <time>2020-03-04T15:16:22Z</time>
      </trkpt>
      <trkpt lat="43.52635" lon="6.28511">
        <ele>300.8</ele>
        <time>2020-03-04T15:16:33Z</time>
      </trkpt>
      <trkpt lat="43.52635" lon="6.28498">
        <ele>300</ele>
        <time>2020-03-04T15:16:42Z</time>
      </trkpt>
      <trkpt lat="43.52626" lon="6.28493">
        <ele>300.8</ele>
        <time>2020-03-04T15:16:54Z</time>
      </trkpt>
      <trkpt lat="43.52627" lon="6.28479">
        <ele>300.9</ele>
        <time>2020-03-04T15:17:03Z</time>
      </trkpt>
      <trkpt lat="43.52626" lon="6.28467">
        <ele>300.3</ele>
        <time>2020-03-04T15:17:14Z</time>
      </trkpt>
      <trkpt lat="43.52624" lon="6.28454">
        <ele>298.7</ele>
        <time>2020-03-04T15:17:26Z</time>
      </trkpt>
      <trkpt lat="43.5262" lon="6.28442">
        <ele>298.1</ele>
        <time>2020-03-04T15:17:35Z</time>
      </trkpt>
      <trkpt lat="43.52615" lon="6.28433">
        <ele>297.3</ele>
        <time>2020-03-04T15:17:44Z</time>
      </trkpt>
      <trkpt lat="43.52607" lon="6.28424">
        <ele>296</ele>
        <time>2020-03-04T15:17:53Z</time>
      </trkpt>
      <trkpt lat="43.52599" lon="6.28417">
        <ele>294.9</ele>
        <time>2020-03-04T15:18:03Z</time>
      </trkpt>
      <trkpt lat="43.52592" lon="6.2841">
        <ele>293.9</ele>
        <time>2020-03-04T15:18:11Z</time>
      </trkpt>
      <trkpt lat="43.52585" lon="6.28401">
        <ele>292.9</ele>
        <time>2020-03-04T15:18:19Z</time>
      </trkpt>
      <trkpt lat="43.52577" lon="6.28393">
        <ele>291.8</ele>
        <time>2020-03-04T15:18:27Z</time>
      </trkpt>
      <trkpt lat="43.5257" lon="6.28384">
        <ele>291</ele>
        <time>2020-03-04T15:18:34Z</time>
      </trkpt>
      <trkpt lat="43.52564" lon="6.28374">
        <ele>289.9</ele>
        <time>2020-03-04T15:18:47Z</time>
      </trkpt>
      <trkpt lat="43.52559" lon="6.28364">
        <ele>289</ele>
        <time>2020-03-04T15:18:57Z</time>
      </trkpt>
      <trkpt lat="43.52555" lon="6.28351">
        <ele>288.3</ele>
        <time>2020-03-04T15:19:06Z</time>
      </trkpt>
      <trkpt lat="43.52553" lon="6.28339">
        <ele>288</ele>
        <time>2020-03-04T15:19:13Z</time>
      </trkpt>
      <trkpt lat="43.52546" lon="6.28328">
        <ele>287.4</ele>
        <time>2020-03-04T15:19:21Z</time>
      </trkpt>
      <trkpt lat="43.52536" lon="6.28325">
        <ele>287.3</ele>
        <time>2020-03-04T15:19:30Z</time>
      </trkpt>
      <trkpt lat="43.52528" lon="6.28321">
        <ele>287.8</ele>
        <time>2020-03-04T15:19:38Z</time>
      </trkpt>
      <trkpt lat="43.52518" lon="6.2832">
        <ele>287.6</ele>
        <time>2020-03-04T15:19:48Z</time>
      </trkpt>
      <trkpt lat="43.52508" lon="6.28322">
        <ele>287.6</ele>
        <time>2020-03-04T15:19:57Z</time>
      </trkpt>
      <trkpt lat="43.52499" lon="6.28326">
        <ele>287.6</ele>
        <time>2020-03-04T15:20:05Z</time>
      </trkpt>
      <trkpt lat="43.52489" lon="6.28329">
        <ele>287.6</ele>
        <time>2020-03-04T15:20:13Z</time>
      </trkpt>
      <trkpt lat="43.52482" lon="6.28337">
        <ele>287.8</ele>
        <time>2020-03-04T15:20:22Z</time>
      </trkpt>
      <trkpt lat="43.52477" lon="6.28348">
        <ele>287.9</ele>
        <time>2020-03-04T15:20:33Z</time>
      </trkpt>
      <trkpt lat="43.52472" lon="6.28359">
        <ele>288.3</ele>
        <time>2020-03-04T15:20:40Z</time>
      </trkpt>
      <trkpt lat="43.52466" lon="6.28369">
        <ele>288.4</ele>
        <time>2020-03-04T15:20:50Z</time>
      </trkpt>
      <trkpt lat="43.52459" lon="6.28376">
        <ele>288.6</ele>
        <time>2020-03-04T15:20:56Z</time>
      </trkpt>
      <trkpt lat="43.52452" lon="6.28386">
        <ele>289.1</ele>
        <time>2020-03-04T15:21:04Z</time>
      </trkpt>
      <trkpt lat="43.52445" lon="6.28397">
        <ele>289.7</ele>
        <time>2020-03-04T15:21:12Z</time>
      </trkpt>
      <trkpt lat="43.52438" lon="6.28406">
        <ele>290.5</ele>
        <time>2020-03-04T15:21:21Z</time>
      </trkpt>
      <trkpt lat="43.5243" lon="6.28412">
        <ele>291.2</ele>
        <time>2020-03-04T15:21:29Z</time>
      </trkpt>
      <trkpt lat="43.52423" lon="6.28422">
        <ele>291.9</ele>
        <time>2020-03-04T15:21:38Z</time>
      </trkpt>
      <trkpt lat="43.52418" lon="6.28432">
        <ele>292.6</ele>
        <time>2020-03-04T15:21:46Z</time>
      </trkpt>
      <trkpt lat="43.52414" lon="6.28445">
        <ele>293.2</ele>
        <time>2020-03-04T15:21:57Z</time>
      </trkpt>
      <trkpt lat="43.5241" lon="6.28457">
        <ele>294</ele>
        <time>2020-03-04T15:22:07Z</time>
      </trkpt>
      <trkpt lat="43.52408" lon="6.2847">
        <ele>294.7</ele>
        <time>2020-03-04T15:22:16Z</time>
      </trkpt>
      <trkpt lat="43.52405" lon="6.28483">
        <ele>295</ele>
        <time>2020-03-04T15:22:25Z</time>
      </trkpt>
      <trkpt lat="43.52402" lon="6.28496">
        <ele>295.7</ele>
        <time>2020-03-04T15:22:34Z</time>
      </trkpt>
      <trkpt lat="43.52399" lon="6.28508">
        <ele>296.2</ele>
        <time>2020-03-04T15:22:42Z</time>
      </trkpt>
      <trkpt lat="43.52396" lon="6.28521">
        <ele>296.4</ele>
        <time>2020-03-04T15:22:51Z</time>
      </trkpt>
      <trkpt lat="43.52393" lon="6.28532">
        <ele>296.8</ele>
        <time>2020-03-04T15:22:59Z</time>
      </trkpt>
      <trkpt lat="43.5239" lon="6.28545">
        <ele>296.7</ele>
        <time>2020-03-04T15:23:07Z</time>
      </trkpt>
      <trkpt lat="43.52385" lon="6.28557">
        <ele>296.7</ele>
        <time>2020-03-04T15:23:15Z</time>
      </trkpt>
      <trkpt lat="43.52382" lon="6.28569">
        <ele>296.9</ele>
        <time>2020-03-04T15:23:23Z</time>
      </trkpt>
      <trkpt lat="43.52378" lon="6.2858">
        <ele>296.9</ele>
        <time>2020-03-04T15:23:32Z</time>
      </trkpt>
      <trkpt lat="43.52374" lon="6.28593">
        <ele>296.4</ele>
        <time>2020-03-04T15:23:40Z</time>
      </trkpt>
      <trkpt lat="43.5237" lon="6.28604">
        <ele>295.8</ele>
        <time>2020-03-04T15:23:50Z</time>
      </trkpt>
      <trkpt lat="43.52364" lon="6.28614">
        <ele>295.2</ele>
        <time>2020-03-04T15:24:21Z</time>
      </trkpt>
      <trkpt lat="43.5236" lon="6.28625">
        <ele>292.9</ele>
        <time>2020-03-04T15:26:50Z</time>
      </trkpt>
      <trkpt lat="43.52356" lon="6.28637">
        <ele>291.2</ele>
        <time>2020-03-04T15:27:04Z</time>
      </trkpt>
      <trkpt lat="43.5235" lon="6.28647">
        <ele>290.1</ele>
        <time>2020-03-04T15:27:19Z</time>
      </trkpt>
      <trkpt lat="43.52342" lon="6.28654">
        <ele>289.2</ele>
        <time>2020-03-04T15:27:36Z</time>
      </trkpt>
      <trkpt lat="43.52335" lon="6.28662">
        <ele>287.8</ele>
        <time>2020-03-04T15:27:49Z</time>
      </trkpt>
      <trkpt lat="43.52328" lon="6.28669">
        <ele>286.8</ele>
        <time>2020-03-04T15:27:59Z</time>
      </trkpt>
      <trkpt lat="43.52321" lon="6.28678">
        <ele>286</ele>
        <time>2020-03-04T15:28:11Z</time>
      </trkpt>
      <trkpt lat="43.52316" lon="6.28689">
        <ele>285</ele>
        <time>2020-03-04T15:28:22Z</time>
      </trkpt>
      <trkpt lat="43.52309" lon="6.287">
        <ele>283.9</ele>
        <time>2020-03-04T15:28:35Z</time>
      </trkpt>
      <trkpt lat="43.52302" lon="6.28709">
        <ele>283</ele>
        <time>2020-03-04T15:28:44Z</time>
      </trkpt>
      <trkpt lat="43.52295" lon="6.28717">
        <ele>281.5</ele>
        <time>2020-03-04T15:28:56Z</time>
      </trkpt>
      <trkpt lat="43.52286" lon="6.28722">
        <ele>280.3</ele>
        <time>2020-03-04T15:29:06Z</time>
      </trkpt>
      <trkpt lat="43.5228" lon="6.28733">
        <ele>279.3</ele>
        <time>2020-03-04T15:29:16Z</time>
      </trkpt>
      <trkpt lat="43.52273" lon="6.28741">
        <ele>278.4</ele>
        <time>2020-03-04T15:29:25Z</time>
      </trkpt>
      <trkpt lat="43.52266" lon="6.28751">
        <ele>277.4</ele>
        <time>2020-03-04T15:29:36Z</time>
      </trkpt>
      <trkpt lat="43.52258" lon="6.28759">
        <ele>275.6</ele>
        <time>2020-03-04T15:29:46Z</time>
      </trkpt>
      <trkpt lat="43.5225" lon="6.28768">
        <ele>274.4</ele>
        <time>2020-03-04T15:29:57Z</time>
      </trkpt>
      <trkpt lat="43.52244" lon="6.28777">
        <ele>273</ele>
        <time>2020-03-04T15:30:09Z</time>
      </trkpt>
      <trkpt lat="43.52237" lon="6.28787">
        <ele>271.4</ele>
        <time>2020-03-04T15:30:22Z</time>
      </trkpt>
      <trkpt lat="43.5223" lon="6.28798">
        <ele>270</ele>
        <time>2020-03-04T15:30:32Z</time>
      </trkpt>
      <trkpt lat="43.52223" lon="6.28806">
        <ele>268.4</ele>
        <time>2020-03-04T15:30:43Z</time>
      </trkpt>
      <trkpt lat="43.52216" lon="6.28815">
        <ele>267.5</ele>
        <time>2020-03-04T15:30:51Z</time>
      </trkpt>
      <trkpt lat="43.52208" lon="6.28822">
        <ele>267</ele>
        <time>2020-03-04T15:30:59Z</time>
      </trkpt>
      <trkpt lat="43.52201" lon="6.2883">
        <ele>265.9</ele>
        <time>2020-03-04T15:31:09Z</time>
      </trkpt>
      <trkpt lat="43.52195" lon="6.28841">
        <ele>265.2</ele>
        <time>2020-03-04T15:31:17Z</time>
      </trkpt>
      <trkpt lat="43.52189" lon="6.28851">
        <ele>264.5</ele>
        <time>2020-03-04T15:31:25Z</time>
      </trkpt>
      <trkpt lat="43.52181" lon="6.28859">
        <ele>263.6</ele>
        <time>2020-03-04T15:31:33Z</time>
      </trkpt>
      <trkpt lat="43.52173" lon="6.28867">
        <ele>262.2</ele>
        <time>2020-03-04T15:31:45Z</time>
      </trkpt>
      <trkpt lat="43.52165" lon="6.28873">
        <ele>261.6</ele>
        <time>2020-03-04T15:31:54Z</time>
      </trkpt>
      <trkpt lat="43.52156" lon="6.28876">
        <ele>260.6</ele>
        <time>2020-03-04T15:32:04Z</time>
      </trkpt>
      <trkpt lat="43.52147" lon="6.2888">
        <ele>259.9</ele>
        <time>2020-03-04T15:32:11Z</time>
      </trkpt>
      <trkpt lat="43.5214" lon="6.28889">
        <ele>258.7</ele>
        <time>2020-03-04T15:32:21Z</time>
      </trkpt>
      <trkpt lat="43.52132" lon="6.28898">
        <ele>258.2</ele>
        <time>2020-03-04T15:32:30Z</time>
      </trkpt>
      <trkpt lat="43.52124" lon="6.28907">
        <ele>257.3</ele>
        <time>2020-03-04T15:32:40Z</time>
      </trkpt>
      <trkpt lat="43.52116" lon="6.28914">
        <ele>256.7</ele>
        <time>2020-03-04T15:32:49Z</time>
      </trkpt>
      <trkpt lat="43.52108" lon="6.2892">
        <ele>255.8</ele>
        <time>2020-03-04T15:32:57Z</time>
      </trkpt>
      <trkpt lat="43.52099" lon="6.28925">
        <ele>255</ele>
        <time>2020-03-04T15:33:06Z</time>
      </trkpt>
      <trkpt lat="43.5209" lon="6.28925">
        <ele>253.7</ele>
        <time>2020-03-04T15:33:16Z</time>
      </trkpt>
      <trkpt lat="43.52081" lon="6.28926">
        <ele>252.4</ele>
        <time>2020-03-04T15:33:26Z</time>
      </trkpt>
      <trkpt lat="43.52071" lon="6.28927">
        <ele>251.2</ele>
        <time>2020-03-04T15:33:34Z</time>
      </trkpt>
      <trkpt lat="43.52062" lon="6.28925">
        <ele>249.6</ele>
        <time>2020-03-04T15:33:45Z</time>
      </trkpt>
      <trkpt lat="43.52052" lon="6.28926">
        <ele>247.9</ele>
        <time>2020-03-04T15:33:57Z</time>
      </trkpt>
      <trkpt lat="43.52043" lon="6.28926">
        <ele>247.3</ele>
        <time>2020-03-04T15:34:05Z</time>
      </trkpt>
      <trkpt lat="43.52034" lon="6.28925">
        <ele>246.4</ele>
        <time>2020-03-04T15:34:14Z</time>
      </trkpt>
      <trkpt lat="43.52024" lon="6.28926">
        <ele>245.6</ele>
        <time>2020-03-04T15:34:24Z</time>
      </trkpt>
      <trkpt lat="43.52015" lon="6.28927">
        <ele>245</ele>
        <time>2020-03-04T15:34:31Z</time>
      </trkpt>
      <trkpt lat="43.52005" lon="6.2893">
        <ele>244.3</ele>
        <time>2020-03-04T15:34:41Z</time>
      </trkpt>
      <trkpt lat="43.51995" lon="6.2893">
        <ele>243.8</ele>
        <time>2020-03-04T15:34:49Z</time>
      </trkpt>
      <trkpt lat="43.51986" lon="6.2893">
        <ele>243.3</ele>
        <time>2020-03-04T15:34:59Z</time>
      </trkpt>
      <trkpt lat="43.51975" lon="6.2893">
        <ele>242.7</ele>
        <time>2020-03-04T15:35:08Z</time>
      </trkpt>
      <trkpt lat="43.51966" lon="6.28932">
        <ele>242</ele>
        <time>2020-03-04T15:35:16Z</time>
      </trkpt>
      <trkpt lat="43.51956" lon="6.28934">
        <ele>241.4</ele>
        <time>2020-03-04T15:35:24Z</time>
      </trkpt>
      <trkpt lat="43.51947" lon="6.28936">
        <ele>240.4</ele>
        <time>2020-03-04T15:35:33Z</time>
      </trkpt>
      <trkpt lat="43.51938" lon="6.28938">
        <ele>239</ele>
        <time>2020-03-04T15:35:42Z</time>
      </trkpt>
      <trkpt lat="43.51929" lon="6.28935">
        <ele>237.7</ele>
        <time>2020-03-04T15:36:06Z</time>
      </trkpt>
      <trkpt lat="43.51931" lon="6.28923">
        <ele>238.6</ele>
        <time>2020-03-04T15:37:52Z</time>
      </trkpt>
      <trkpt lat="43.51925" lon="6.28913">
        <ele>240.1</ele>
        <time>2020-03-04T15:38:08Z</time>
      </trkpt>
      <trkpt lat="43.51918" lon="6.28922">
        <ele>241.1</ele>
        <time>2020-03-04T15:38:27Z</time>
      </trkpt>
      <trkpt lat="43.51915" lon="6.28935">
        <ele>241</ele>
        <time>2020-03-04T15:38:36Z</time>
      </trkpt>
      <trkpt lat="43.51911" lon="6.28947">
        <ele>241</ele>
        <time>2020-03-04T15:38:44Z</time>
      </trkpt>
      <trkpt lat="43.51909" lon="6.2896">
        <ele>240.7</ele>
        <time>2020-03-04T15:38:53Z</time>
      </trkpt>
      <trkpt lat="43.51905" lon="6.28973">
        <ele>241</ele>
        <time>2020-03-04T15:39:05Z</time>
      </trkpt>
      <trkpt lat="43.51901" lon="6.28985">
        <ele>240.9</ele>
        <time>2020-03-04T15:39:15Z</time>
      </trkpt>
      <trkpt lat="43.51895" lon="6.28994">
        <ele>241.3</ele>
        <time>2020-03-04T15:39:28Z</time>
      </trkpt>
      <trkpt lat="43.51889" lon="6.29005">
        <ele>241.5</ele>
        <time>2020-03-04T15:39:36Z</time>
      </trkpt>
      <trkpt lat="43.51883" lon="6.29017">
        <ele>241.4</ele>
        <time>2020-03-04T15:39:46Z</time>
      </trkpt>
      <trkpt lat="43.51877" lon="6.29027">
        <ele>241.5</ele>
        <time>2020-03-04T15:39:53Z</time>
      </trkpt>
      <trkpt lat="43.51869" lon="6.29034">
        <ele>242.5</ele>
        <time>2020-03-04T15:40:02Z</time>
      </trkpt>
      <trkpt lat="43.51864" lon="6.29043">
        <ele>241.9</ele>
        <time>2020-03-04T15:40:10Z</time>
      </trkpt>
      <trkpt lat="43.51857" lon="6.29054">
        <ele>241.8</ele>
        <time>2020-03-04T15:40:17Z</time>
      </trkpt>
      <trkpt lat="43.51851" lon="6.29063">
        <ele>241.9</ele>
        <time>2020-03-04T15:40:25Z</time>
      </trkpt>
      <trkpt lat="43.51845" lon="6.29074">
        <ele>242.1</ele>
        <time>2020-03-04T15:40:34Z</time>
      </trkpt>
      <trkpt lat="43.51841" lon="6.29085">
        <ele>242.1</ele>
        <time>2020-03-04T15:40:43Z</time>
      </trkpt>
      <trkpt lat="43.51836" lon="6.29095">
        <ele>242.1</ele>
        <time>2020-03-04T15:40:51Z</time>
      </trkpt>
      <trkpt lat="43.5183" lon="6.29104">
        <ele>242.2</ele>
        <time>2020-03-04T15:41:00Z</time>
      </trkpt>
      <trkpt lat="43.51823" lon="6.29115">
        <ele>242.1</ele>
        <time>2020-03-04T15:41:08Z</time>
      </trkpt>
      <trkpt lat="43.51816" lon="6.29124">
        <ele>242.2</ele>
        <time>2020-03-04T15:41:17Z</time>
      </trkpt>
      <trkpt lat="43.51811" lon="6.29136">
        <ele>242.2</ele>
        <time>2020-03-04T15:41:27Z</time>
      </trkpt>
      <trkpt lat="43.51807" lon="6.29148">
        <ele>242.3</ele>
        <time>2020-03-04T15:41:35Z</time>
      </trkpt>
      <trkpt lat="43.51801" lon="6.29157">
        <ele>242.4</ele>
        <time>2020-03-04T15:41:42Z</time>
      </trkpt>
      <trkpt lat="43.51794" lon="6.29167">
        <ele>242.6</ele>
        <time>2020-03-04T15:41:51Z</time>
      </trkpt>
      <trkpt lat="43.51792" lon="6.2918">
        <ele>242.7</ele>
        <time>2020-03-04T15:42:01Z</time>
      </trkpt>
      <trkpt lat="43.51789" lon="6.29194">
        <ele>242.6</ele>
        <time>2020-03-04T15:42:11Z</time>
      </trkpt>
      <trkpt lat="43.51784" lon="6.29205">
        <ele>242.8</ele>
        <time>2020-03-04T15:42:18Z</time>
      </trkpt>
      <trkpt lat="43.51778" lon="6.29215">
        <ele>242.9</ele>
        <time>2020-03-04T15:42:25Z</time>
      </trkpt>
      <trkpt lat="43.51774" lon="6.29227">
        <ele>243.1</ele>
        <time>2020-03-04T15:42:33Z</time>
      </trkpt>
      <trkpt lat="43.51771" lon="6.29239">
        <ele>243.4</ele>
        <time>2020-03-04T15:42:43Z</time>
      </trkpt>
      <trkpt lat="43.51767" lon="6.29252">
        <ele>243.1</ele>
        <time>2020-03-04T15:42:51Z</time>
      </trkpt>
      <trkpt lat="43.51762" lon="6.29263">
        <ele>243.3</ele>
        <time>2020-03-04T15:43:00Z</time>
      </trkpt>
      <trkpt lat="43.51758" lon="6.29275">
        <ele>243.5</ele>
        <time>2020-03-04T15:43:09Z</time>
      </trkpt>
      <trkpt lat="43.51755" lon="6.29288">
        <ele>243</ele>
        <time>2020-03-04T15:43:18Z</time>
      </trkpt>
      <trkpt lat="43.5175" lon="6.29299">
        <ele>243.2</ele>
        <time>2020-03-04T15:43:28Z</time>
      </trkpt>
      <trkpt lat="43.51748" lon="6.29312">
        <ele>243.3</ele>
        <time>2020-03-04T15:43:36Z</time>
      </trkpt>
      <trkpt lat="43.51744" lon="6.29325">
        <ele>243.2</ele>
        <time>2020-03-04T15:43:47Z</time>
      </trkpt>
      <trkpt lat="43.51738" lon="6.29335">
        <ele>242.9</ele>
        <time>2020-03-04T15:43:55Z</time>
      </trkpt>
      <trkpt lat="43.51733" lon="6.29345">
        <ele>242.9</ele>
        <time>2020-03-04T15:44:03Z</time>
      </trkpt>
      <trkpt lat="43.51727" lon="6.29356">
        <ele>243</ele>
        <time>2020-03-04T15:44:10Z</time>
      </trkpt>
      <trkpt lat="43.51723" lon="6.29368">
        <ele>243.3</ele>
        <time>2020-03-04T15:44:20Z</time>
      </trkpt>
      <trkpt lat="43.51719" lon="6.2938">
        <ele>243.2</ele>
        <time>2020-03-04T15:44:28Z</time>
      </trkpt>
      <trkpt lat="43.51713" lon="6.29391">
        <ele>243.4</ele>
        <time>2020-03-04T15:44:37Z</time>
      </trkpt>
      <trkpt lat="43.51709" lon="6.29403">
        <ele>242.7</ele>
        <time>2020-03-04T15:44:46Z</time>
      </trkpt>
      <trkpt lat="43.51703" lon="6.29415">
        <ele>243</ele>
        <time>2020-03-04T15:44:54Z</time>
      </trkpt>
      <trkpt lat="43.517" lon="6.29428">
        <ele>242.9</ele>
        <time>2020-03-04T15:45:01Z</time>
      </trkpt>
      <trkpt lat="43.51697" lon="6.2944">
        <ele>243</ele>
        <time>2020-03-04T15:45:07Z</time>
      </trkpt>
      <trkpt lat="43.51692" lon="6.29451">
        <ele>243.3</ele>
        <time>2020-03-04T15:45:15Z</time>
      </trkpt>
      <trkpt lat="43.51687" lon="6.29463">
        <ele>243.6</ele>
        <time>2020-03-04T15:45:23Z</time>
      </trkpt>
      <trkpt lat="43.51684" lon="6.29476">
        <ele>243.6</ele>
        <time>2020-03-04T15:45:32Z</time>
      </trkpt>
      <trkpt lat="43.51679" lon="6.29487">
        <ele>243.9</ele>
        <time>2020-03-04T15:45:40Z</time>
      </trkpt>
      <trkpt lat="43.51674" lon="6.295">
        <ele>244.1</ele>
        <time>2020-03-04T15:45:46Z</time>
      </trkpt>
      <trkpt lat="43.5167" lon="6.29512">
        <ele>244</ele>
        <time>2020-03-04T15:45:53Z</time>
      </trkpt>
      <trkpt lat="43.51669" lon="6.29524">
        <ele>244.1</ele>
        <time>2020-03-04T15:46:03Z</time>
      </trkpt>
      <trkpt lat="43.51667" lon="6.29538">
        <ele>244.3</ele>
        <time>2020-03-04T15:46:12Z</time>
      </trkpt>
      <trkpt lat="43.51664" lon="6.29551">
        <ele>244.4</ele>
        <time>2020-03-04T15:46:18Z</time>
      </trkpt>
      <trkpt lat="43.51661" lon="6.29563">
        <ele>244.5</ele>
        <time>2020-03-04T15:46:25Z</time>
      </trkpt>
      <trkpt lat="43.51659" lon="6.29576">
        <ele>244.3</ele>
        <time>2020-03-04T15:46:34Z</time>
      </trkpt>
      <trkpt lat="43.51657" lon="6.29588">
        <ele>244.5</ele>
        <time>2020-03-04T15:46:43Z</time>
      </trkpt>
      <trkpt lat="43.51655" lon="6.29601">
        <ele>244.6</ele>
        <time>2020-03-04T15:46:51Z</time>
      </trkpt>
      <trkpt lat="43.51653" lon="6.29614">
        <ele>244.7</ele>
        <time>2020-03-04T15:46:58Z</time>
      </trkpt>
      <trkpt lat="43.51652" lon="6.29626">
        <ele>244.6</ele>
        <time>2020-03-04T15:47:07Z</time>
      </trkpt>
      <trkpt lat="43.51649" lon="6.29638">
        <ele>244.6</ele>
        <time>2020-03-04T15:47:13Z</time>
      </trkpt>
      <trkpt lat="43.51645" lon="6.29651">
        <ele>244.8</ele>
        <time>2020-03-04T15:47:20Z</time>
      </trkpt>
      <trkpt lat="43.51641" lon="6.29664">
        <ele>245</ele>
        <time>2020-03-04T15:47:27Z</time>
      </trkpt>
      <trkpt lat="43.5164" lon="6.29677">
        <ele>245</ele>
        <time>2020-03-04T15:47:36Z</time>
      </trkpt>
      <trkpt lat="43.51638" lon="6.2969">
        <ele>245.2</ele>
        <time>2020-03-04T15:47:43Z</time>
      </trkpt>
      <trkpt lat="43.51636" lon="6.29702">
        <ele>245.2</ele>
        <time>2020-03-04T15:47:50Z</time>
      </trkpt>
      <trkpt lat="43.51635" lon="6.29716">
        <ele>245.5</ele>
        <time>2020-03-04T15:48:00Z</time>
      </trkpt>
      <trkpt lat="43.51631" lon="6.29728">
        <ele>245.7</ele>
        <time>2020-03-04T15:48:09Z</time>
      </trkpt>
      <trkpt lat="43.51629" lon="6.2974">
        <ele>245.8</ele>
        <time>2020-03-04T15:48:17Z</time>
      </trkpt>
      <trkpt lat="43.51627" lon="6.29754">
        <ele>245.6</ele>
        <time>2020-03-04T15:48:27Z</time>
      </trkpt>
      <trkpt lat="43.51625" lon="6.29767">
        <ele>245.6</ele>
        <time>2020-03-04T15:48:38Z</time>
      </trkpt>
      <trkpt lat="43.5162" lon="6.29779">
        <ele>245.7</ele>
        <time>2020-03-04T15:48:45Z</time>
      </trkpt>
      <trkpt lat="43.51616" lon="6.29791">
        <ele>245.6</ele>
        <time>2020-03-04T15:48:54Z</time>
      </trkpt>
      <trkpt lat="43.51609" lon="6.29801">
        <ele>245.5</ele>
        <time>2020-03-04T15:49:02Z</time>
      </trkpt>
      <trkpt lat="43.51603" lon="6.2981">
        <ele>245.7</ele>
        <time>2020-03-04T15:49:10Z</time>
      </trkpt>
      <trkpt lat="43.51597" lon="6.2982">
        <ele>245.6</ele>
        <time>2020-03-04T15:49:19Z</time>
      </trkpt>
      <trkpt lat="43.51592" lon="6.29833">
        <ele>245.5</ele>
        <time>2020-03-04T15:49:27Z</time>
      </trkpt>
      <trkpt lat="43.51584" lon="6.2984">
        <ele>245.7</ele>
        <time>2020-03-04T15:49:38Z</time>
      </trkpt>
      <trkpt lat="43.51576" lon="6.29847">
        <ele>245.7</ele>
        <time>2020-03-04T15:49:47Z</time>
      </trkpt>
      <trkpt lat="43.51568" lon="6.29854">
        <ele>245.6</ele>
        <time>2020-03-04T15:49:54Z</time>
      </trkpt>
      <trkpt lat="43.51559" lon="6.29857">
        <ele>245.7</ele>
        <time>2020-03-04T15:50:02Z</time>
      </trkpt>
      <trkpt lat="43.5155" lon="6.29861">
        <ele>246</ele>
        <time>2020-03-04T15:50:14Z</time>
      </trkpt>
      <trkpt lat="43.5154" lon="6.29866">
        <ele>246</ele>
        <time>2020-03-04T15:50:22Z</time>
      </trkpt>
      <trkpt lat="43.51531" lon="6.29869">
        <ele>245.8</ele>
        <time>2020-03-04T15:50:31Z</time>
      </trkpt>
      <trkpt lat="43.51522" lon="6.29872">
        <ele>245.9</ele>
        <time>2020-03-04T15:50:38Z</time>
      </trkpt>
      <trkpt lat="43.51513" lon="6.29875">
        <ele>246.3</ele>
        <time>2020-03-04T15:50:47Z</time>
      </trkpt>
      <trkpt lat="43.51502" lon="6.29877">
        <ele>246.7</ele>
        <time>2020-03-04T15:50:58Z</time>
      </trkpt>
      <trkpt lat="43.51493" lon="6.29883">
        <ele>246.4</ele>
        <time>2020-03-04T15:51:07Z</time>
      </trkpt>
      <trkpt lat="43.51484" lon="6.29881">
        <ele>246.6</ele>
        <time>2020-03-04T15:51:15Z</time>
      </trkpt>
      <trkpt lat="43.51474" lon="6.29884">
        <ele>246.5</ele>
        <time>2020-03-04T15:51:23Z</time>
      </trkpt>
      <trkpt lat="43.51465" lon="6.29888">
        <ele>246.9</ele>
        <time>2020-03-04T15:51:30Z</time>
      </trkpt>
      <trkpt lat="43.51456" lon="6.29892">
        <ele>247.5</ele>
        <time>2020-03-04T15:51:37Z</time>
      </trkpt>
      <trkpt lat="43.51448" lon="6.29897">
        <ele>247.4</ele>
        <time>2020-03-04T15:51:44Z</time>
      </trkpt>
      <trkpt lat="43.51439" lon="6.299">
        <ele>247.6</ele>
        <time>2020-03-04T15:51:51Z</time>
      </trkpt>
      <trkpt lat="43.51431" lon="6.29908">
        <ele>247.6</ele>
        <time>2020-03-04T15:52:00Z</time>
      </trkpt>
      <trkpt lat="43.51425" lon="6.29917">
        <ele>247.2</ele>
        <time>2020-03-04T15:52:09Z</time>
      </trkpt>
      <trkpt lat="43.51419" lon="6.29927">
        <ele>247.7</ele>
        <time>2020-03-04T15:52:17Z</time>
      </trkpt>
      <trkpt lat="43.51414" lon="6.29939">
        <ele>247.4</ele>
        <time>2020-03-04T15:52:26Z</time>
      </trkpt>
      <trkpt lat="43.51408" lon="6.29952">
        <ele>247.1</ele>
        <time>2020-03-04T15:52:33Z</time>
      </trkpt>
      <trkpt lat="43.51401" lon="6.29961">
        <ele>247.4</ele>
        <time>2020-03-04T15:52:40Z</time>
      </trkpt>
      <trkpt lat="43.51395" lon="6.2997">
        <ele>247.5</ele>
        <time>2020-03-04T15:52:47Z</time>
      </trkpt>
      <trkpt lat="43.51389" lon="6.29981">
        <ele>247.7</ele>
        <time>2020-03-04T15:52:57Z</time>
      </trkpt>
      <trkpt lat="43.51385" lon="6.29992">
        <ele>249.1</ele>
        <time>2020-03-04T15:53:09Z</time>
      </trkpt>
      <trkpt lat="43.51381" lon="6.30003">
        <ele>248.4</ele>
        <time>2020-03-04T15:53:18Z</time>
      </trkpt>
      <trkpt lat="43.51375" lon="6.30013">
        <ele>248.4</ele>
        <time>2020-03-04T15:53:27Z</time>
      </trkpt>
      <trkpt lat="43.5137" lon="6.30023">
        <ele>248.5</ele>
        <time>2020-03-04T15:53:38Z</time>
      </trkpt>
      <trkpt lat="43.51364" lon="6.30035">
        <ele>248.5</ele>
        <time>2020-03-04T15:53:48Z</time>
      </trkpt>
      <trkpt lat="43.51359" lon="6.30046">
        <ele>248.4</ele>
        <time>2020-03-04T15:53:57Z</time>
      </trkpt>
      <trkpt lat="43.51355" lon="6.30057">
        <ele>248.5</ele>
        <time>2020-03-04T15:54:06Z</time>
      </trkpt>
      <trkpt lat="43.51348" lon="6.30067">
        <ele>248.8</ele>
        <time>2020-03-04T15:54:16Z</time>
      </trkpt>
      <trkpt lat="43.51342" lon="6.30078">
        <ele>249.1</ele>
        <time>2020-03-04T15:54:24Z</time>
      </trkpt>
      <trkpt lat="43.51337" lon="6.3009">
        <ele>248.9</ele>
        <time>2020-03-04T15:54:32Z</time>
      </trkpt>
      <trkpt lat="43.51331" lon="6.301">
        <ele>249.2</ele>
        <time>2020-03-04T15:54:42Z</time>
      </trkpt>
      <trkpt lat="43.51327" lon="6.30112">
        <ele>249.4</ele>
        <time>2020-03-04T15:54:50Z</time>
      </trkpt>
      <trkpt lat="43.5132" lon="6.3012">
        <ele>249.5</ele>
        <time>2020-03-04T15:54:57Z</time>
      </trkpt>
      <trkpt lat="43.51314" lon="6.30131">
        <ele>249.5</ele>
        <time>2020-03-04T15:55:04Z</time>
      </trkpt>
      <trkpt lat="43.5131" lon="6.30143">
        <ele>249.7</ele>
        <time>2020-03-04T15:55:14Z</time>
      </trkpt>
      <trkpt lat="43.51305" lon="6.30153">
        <ele>249.9</ele>
        <time>2020-03-04T15:55:24Z</time>
      </trkpt>
      <trkpt lat="43.513" lon="6.30163">
        <ele>250</ele>
        <time>2020-03-04T15:55:32Z</time>
      </trkpt>
      <trkpt lat="43.51295" lon="6.30174">
        <ele>250</ele>
        <time>2020-03-04T15:55:40Z</time>
      </trkpt>
      <trkpt lat="43.5129" lon="6.30185">
        <ele>250</ele>
        <time>2020-03-04T15:55:48Z</time>
      </trkpt>
      <trkpt lat="43.51286" lon="6.30197">
        <ele>250.2</ele>
        <time>2020-03-04T15:55:57Z</time>
      </trkpt>
      <trkpt lat="43.51279" lon="6.30205">
        <ele>250.3</ele>
        <time>2020-03-04T15:56:05Z</time>
      </trkpt>
      <trkpt lat="43.51274" lon="6.30215">
        <ele>250.8</ele>
        <time>2020-03-04T15:56:13Z</time>
      </trkpt>
      <trkpt lat="43.5127" lon="6.30227">
        <ele>250.6</ele>
        <time>2020-03-04T15:56:21Z</time>
      </trkpt>
      <trkpt lat="43.51263" lon="6.30236">
        <ele>250.7</ele>
        <time>2020-03-04T15:56:32Z</time>
      </trkpt>
      <trkpt lat="43.51258" lon="6.30246">
        <ele>250.7</ele>
        <time>2020-03-04T15:56:45Z</time>
      </trkpt>
      <trkpt lat="43.5125" lon="6.30255">
        <ele>250.7</ele>
        <time>2020-03-04T15:56:54Z</time>
      </trkpt>
      <trkpt lat="43.51243" lon="6.30262">
        <ele>250.7</ele>
        <time>2020-03-04T15:57:00Z</time>
      </trkpt>
      <trkpt lat="43.51235" lon="6.30271">
        <ele>250.6</ele>
        <time>2020-03-04T15:57:07Z</time>
      </trkpt>
      <trkpt lat="43.51228" lon="6.30279">
        <ele>250.7</ele>
        <time>2020-03-04T15:57:14Z</time>
      </trkpt>
      <trkpt lat="43.5122" lon="6.30287">
        <ele>251</ele>
        <time>2020-03-04T15:57:23Z</time>
      </trkpt>
      <trkpt lat="43.51212" lon="6.30294">
        <ele>251</ele>
        <time>2020-03-04T15:57:33Z</time>
      </trkpt>
      <trkpt lat="43.51203" lon="6.30301">
        <ele>251.3</ele>
        <time>2020-03-04T15:57:42Z</time>
      </trkpt>
      <trkpt lat="43.51195" lon="6.30309">
        <ele>251.3</ele>
        <time>2020-03-04T15:57:50Z</time>
      </trkpt>
      <trkpt lat="43.51187" lon="6.30315">
        <ele>251.3</ele>
        <time>2020-03-04T15:57:59Z</time>
      </trkpt>
      <trkpt lat="43.51181" lon="6.30325">
        <ele>251.4</ele>
        <time>2020-03-04T15:58:07Z</time>
      </trkpt>
      <trkpt lat="43.51172" lon="6.30332">
        <ele>251.5</ele>
        <time>2020-03-04T15:58:16Z</time>
      </trkpt>
      <trkpt lat="43.51165" lon="6.3034">
        <ele>251.8</ele>
        <time>2020-03-04T15:58:24Z</time>
      </trkpt>
      <trkpt lat="43.51157" lon="6.30349">
        <ele>251.8</ele>
        <time>2020-03-04T15:58:43Z</time>
      </trkpt>
      <trkpt lat="43.5115" lon="6.30357">
        <ele>252.3</ele>
        <time>2020-03-04T15:58:50Z</time>
      </trkpt>
      <trkpt lat="43.51144" lon="6.30367">
        <ele>252</ele>
        <time>2020-03-04T15:58:59Z</time>
      </trkpt>
      <trkpt lat="43.51136" lon="6.30374">
        <ele>252</ele>
        <time>2020-03-04T15:59:07Z</time>
      </trkpt>
      <trkpt lat="43.51129" lon="6.30382">
        <ele>252</ele>
        <time>2020-03-04T15:59:15Z</time>
      </trkpt>
      <trkpt lat="43.51122" lon="6.30391">
        <ele>252.1</ele>
        <time>2020-03-04T15:59:22Z</time>
      </trkpt>
      <trkpt lat="43.51116" lon="6.304">
        <ele>252.1</ele>
        <time>2020-03-04T15:59:30Z</time>
      </trkpt>
      <trkpt lat="43.51109" lon="6.30411">
        <ele>251.3</ele>
        <time>2020-03-04T15:59:39Z</time>
      </trkpt>
      <trkpt lat="43.51103" lon="6.30422">
        <ele>252.2</ele>
        <time>2020-03-04T15:59:47Z</time>
      </trkpt>
      <trkpt lat="43.51095" lon="6.30431">
        <ele>252.4</ele>
        <time>2020-03-04T15:59:56Z</time>
      </trkpt>
      <trkpt lat="43.5109" lon="6.30442">
        <ele>253.1</ele>
        <time>2020-03-04T16:00:06Z</time>
      </trkpt>
      <trkpt lat="43.51083" lon="6.30451">
        <ele>252.9</ele>
        <time>2020-03-04T16:00:14Z</time>
      </trkpt>
      <trkpt lat="43.51077" lon="6.30461">
        <ele>253.3</ele>
        <time>2020-03-04T16:00:22Z</time>
      </trkpt>
      <trkpt lat="43.5107" lon="6.30471">
        <ele>253.3</ele>
        <time>2020-03-04T16:00:31Z</time>
      </trkpt>
      <trkpt lat="43.51068" lon="6.30483">
        <ele>253.6</ele>
        <time>2020-03-04T16:00:42Z</time>
      </trkpt>
      <trkpt lat="43.51062" lon="6.30492">
        <ele>254.9</ele>
        <time>2020-03-04T16:00:59Z</time>
      </trkpt>
      <trkpt lat="43.51054" lon="6.30499">
        <ele>256.7</ele>
        <time>2020-03-04T16:01:14Z</time>
      </trkpt>
      <trkpt lat="43.51045" lon="6.30506">
        <ele>258.5</ele>
        <time>2020-03-04T16:01:25Z</time>
      </trkpt>
      <trkpt lat="43.51036" lon="6.30512">
        <ele>259.8</ele>
        <time>2020-03-04T16:01:39Z</time>
      </trkpt>
      <trkpt lat="43.51031" lon="6.30523">
        <ele>260.7</ele>
        <time>2020-03-04T16:01:58Z</time>
      </trkpt>
      <trkpt lat="43.5103" lon="6.30536">
        <ele>261.7</ele>
        <time>2020-03-04T16:02:11Z</time>
      </trkpt>
      <trkpt lat="43.51031" lon="6.30548">
        <ele>262.8</ele>
        <time>2020-03-04T16:02:22Z</time>
      </trkpt>
      <trkpt lat="43.51029" lon="6.30562">
        <ele>264.2</ele>
        <time>2020-03-04T16:02:31Z</time>
      </trkpt>
      <trkpt lat="43.51028" lon="6.30575">
        <ele>265.6</ele>
        <time>2020-03-04T16:02:43Z</time>
      </trkpt>
      <trkpt lat="43.51027" lon="6.30588">
        <ele>266.7</ele>
        <time>2020-03-04T16:02:54Z</time>
      </trkpt>
      <trkpt lat="43.51024" lon="6.306">
        <ele>267.4</ele>
        <time>2020-03-04T16:03:04Z</time>
      </trkpt>
      <trkpt lat="43.51024" lon="6.30612">
        <ele>268.3</ele>
        <time>2020-03-04T16:03:12Z</time>
      </trkpt>
      <trkpt lat="43.51026" lon="6.30625">
        <ele>269.3</ele>
        <time>2020-03-04T16:03:35Z</time>
      </trkpt>
      <trkpt lat="43.51019" lon="6.30633">
        <ele>270.2</ele>
        <time>2020-03-04T16:03:47Z</time>
      </trkpt>
      <trkpt lat="43.51012" lon="6.30641">
        <ele>270.2</ele>
        <time>2020-03-04T16:03:55Z</time>
      </trkpt>
      <trkpt lat="43.51006" lon="6.30651">
        <ele>269.9</ele>
        <time>2020-03-04T16:04:06Z</time>
      </trkpt>
      <trkpt lat="43.50998" lon="6.30659">
        <ele>269.6</ele>
        <time>2020-03-04T16:04:14Z</time>
      </trkpt>
      <trkpt lat="43.50992" lon="6.30668">
        <ele>268.9</ele>
        <time>2020-03-04T16:04:25Z</time>
      </trkpt>
      <trkpt lat="43.50983" lon="6.30675">
        <ele>268</ele>
        <time>2020-03-04T16:04:36Z</time>
      </trkpt>
      <trkpt lat="43.50978" lon="6.30687">
        <ele>267.5</ele>
        <time>2020-03-04T16:04:45Z</time>
      </trkpt>
      <trkpt lat="43.50976" lon="6.30699">
        <ele>267.2</ele>
        <time>2020-03-04T16:04:55Z</time>
      </trkpt>
      <trkpt lat="43.50973" lon="6.30711">
        <ele>267.7</ele>
        <time>2020-03-04T16:05:08Z</time>
      </trkpt>
      <trkpt lat="43.50967" lon="6.30721">
        <ele>266.8</ele>
        <time>2020-03-04T16:05:24Z</time>
      </trkpt>
      <trkpt lat="43.50966" lon="6.30734">
        <ele>265.5</ele>
        <time>2020-03-04T16:06:47Z</time>
      </trkpt>
      <trkpt lat="43.50957" lon="6.30742">
        <ele>261.9</ele>
        <time>2020-03-04T16:07:59Z</time>
      </trkpt>
      <trkpt lat="43.50952" lon="6.30752">
        <ele>259.3</ele>
        <time>2020-03-04T16:08:13Z</time>
      </trkpt>
      <trkpt lat="43.50946" lon="6.30762">
        <ele>258.6</ele>
        <time>2020-03-04T16:08:21Z</time>
      </trkpt>
      <trkpt lat="43.50938" lon="6.30769">
        <ele>257.7</ele>
        <time>2020-03-04T16:08:49Z</time>
      </trkpt>
      <trkpt lat="43.5093" lon="6.30763">
        <ele>257</ele>
        <time>2020-03-04T16:09:06Z</time>
      </trkpt>
      <trkpt lat="43.50921" lon="6.30762">
        <ele>255.9</ele>
        <time>2020-03-04T16:09:16Z</time>
      </trkpt>
      <trkpt lat="43.50912" lon="6.30761">
        <ele>255.1</ele>
        <time>2020-03-04T16:09:28Z</time>
      </trkpt>
      <trkpt lat="43.50915" lon="6.30773">
        <ele>255.9</ele>
        <time>2020-03-04T16:10:20Z</time>
      </trkpt>
      <trkpt lat="43.5091" lon="6.30783">
        <ele>256.4</ele>
        <time>2020-03-04T16:10:33Z</time>
      </trkpt>
      <trkpt lat="43.50906" lon="6.30795">
        <ele>256.5</ele>
        <time>2020-03-04T16:10:44Z</time>
      </trkpt>
      <trkpt lat="43.509" lon="6.30805">
        <ele>256.6</ele>
        <time>2020-03-04T16:10:55Z</time>
      </trkpt>
      <trkpt lat="43.50896" lon="6.30817">
        <ele>256.7</ele>
        <time>2020-03-04T16:11:07Z</time>
      </trkpt>
      <trkpt lat="43.50892" lon="6.30829">
        <ele>256.9</ele>
        <time>2020-03-04T16:11:16Z</time>
      </trkpt>
      <trkpt lat="43.50888" lon="6.30841">
        <ele>257</ele>
        <time>2020-03-04T16:11:25Z</time>
      </trkpt>
      <trkpt lat="43.50882" lon="6.30851">
        <ele>257.4</ele>
        <time>2020-03-04T16:11:32Z</time>
      </trkpt>
      <trkpt lat="43.50881" lon="6.30864">
        <ele>257.4</ele>
        <time>2020-03-04T16:11:42Z</time>
      </trkpt>
      <trkpt lat="43.50877" lon="6.30876">
        <ele>257.5</ele>
        <time>2020-03-04T16:11:51Z</time>
      </trkpt>
      <trkpt lat="43.50871" lon="6.30887">
        <ele>257.4</ele>
        <time>2020-03-04T16:12:00Z</time>
      </trkpt>
      <trkpt lat="43.50867" lon="6.309">
        <ele>257.6</ele>
        <time>2020-03-04T16:12:08Z</time>
      </trkpt>
      <trkpt lat="43.50863" lon="6.30911">
        <ele>257.4</ele>
        <time>2020-03-04T16:12:15Z</time>
      </trkpt>
      <trkpt lat="43.50858" lon="6.30923">
        <ele>257.4</ele>
        <time>2020-03-04T16:12:24Z</time>
      </trkpt>
      <trkpt lat="43.50856" lon="6.30936">
        <ele>257.5</ele>
        <time>2020-03-04T16:12:32Z</time>
      </trkpt>
      <trkpt lat="43.50852" lon="6.30948">
        <ele>257.9</ele>
        <time>2020-03-04T16:12:39Z</time>
      </trkpt>
      <trkpt lat="43.50847" lon="6.30959">
        <ele>257.9</ele>
        <time>2020-03-04T16:12:45Z</time>
      </trkpt>
      <trkpt lat="43.50841" lon="6.30971">
        <ele>257.7</ele>
        <time>2020-03-04T16:12:52Z</time>
      </trkpt>
      <trkpt lat="43.50836" lon="6.30983">
        <ele>257.5</ele>
        <time>2020-03-04T16:12:59Z</time>
      </trkpt>
      <trkpt lat="43.50832" lon="6.30994">
        <ele>257.5</ele>
        <time>2020-03-04T16:13:06Z</time>
      </trkpt>
      <trkpt lat="43.50825" lon="6.31004">
        <ele>257.3</ele>
        <time>2020-03-04T16:13:14Z</time>
      </trkpt>
      <trkpt lat="43.50818" lon="6.31015">
        <ele>257.3</ele>
        <time>2020-03-04T16:13:23Z</time>
      </trkpt>
      <trkpt lat="43.50815" lon="6.31028">
        <ele>257</ele>
        <time>2020-03-04T16:13:32Z</time>
      </trkpt>
      <trkpt lat="43.5081" lon="6.31038">
        <ele>257.2</ele>
        <time>2020-03-04T16:13:38Z</time>
      </trkpt>
      <trkpt lat="43.50804" lon="6.31049">
        <ele>257.2</ele>
        <time>2020-03-04T16:13:45Z</time>
      </trkpt>
      <trkpt lat="43.50799" lon="6.3106">
        <ele>256.7</ele>
        <time>2020-03-04T16:13:52Z</time>
      </trkpt>
      <trkpt lat="43.50795" lon="6.31071">
        <ele>256.3</ele>
        <time>2020-03-04T16:14:00Z</time>
      </trkpt>
      <trkpt lat="43.50789" lon="6.31082">
        <ele>256.4</ele>
        <time>2020-03-04T16:14:09Z</time>
      </trkpt>
      <trkpt lat="43.50784" lon="6.31092">
        <ele>256.5</ele>
        <time>2020-03-04T16:14:17Z</time>
      </trkpt>
      <trkpt lat="43.50778" lon="6.31103">
        <ele>256.3</ele>
        <time>2020-03-04T16:14:28Z</time>
      </trkpt>
      <trkpt lat="43.50772" lon="6.31112">
        <ele>256.2</ele>
        <time>2020-03-04T16:14:40Z</time>
      </trkpt>
      <trkpt lat="43.50767" lon="6.31122">
        <ele>256.4</ele>
        <time>2020-03-04T16:14:48Z</time>
      </trkpt>
      <trkpt lat="43.50763" lon="6.31135">
        <ele>256.3</ele>
        <time>2020-03-04T16:14:57Z</time>
      </trkpt>
      <trkpt lat="43.50758" lon="6.31145">
        <ele>256.2</ele>
        <time>2020-03-04T16:15:05Z</time>
      </trkpt>
      <trkpt lat="43.50752" lon="6.31156">
        <ele>256.4</ele>
        <time>2020-03-04T16:15:13Z</time>
      </trkpt>
      <trkpt lat="43.50747" lon="6.31165">
        <ele>256.3</ele>
        <time>2020-03-04T16:15:21Z</time>
      </trkpt>
      <trkpt lat="43.5074" lon="6.31175">
        <ele>256.2</ele>
        <time>2020-03-04T16:15:29Z</time>
      </trkpt>
      <trkpt lat="43.50734" lon="6.31187">
        <ele>256.1</ele>
        <time>2020-03-04T16:15:37Z</time>
      </trkpt>
      <trkpt lat="43.50728" lon="6.31197">
        <ele>255.3</ele>
        <time>2020-03-04T16:15:47Z</time>
      </trkpt>
      <trkpt lat="43.50721" lon="6.31206">
        <ele>256.1</ele>
        <time>2020-03-04T16:15:56Z</time>
      </trkpt>
      <trkpt lat="43.50713" lon="6.31215">
        <ele>256.4</ele>
        <time>2020-03-04T16:16:04Z</time>
      </trkpt>
      <trkpt lat="43.50707" lon="6.31224">
        <ele>256.1</ele>
        <time>2020-03-04T16:16:12Z</time>
      </trkpt>
      <trkpt lat="43.507" lon="6.31233">
        <ele>256.2</ele>
        <time>2020-03-04T16:16:20Z</time>
      </trkpt>
      <trkpt lat="43.50693" lon="6.31241">
        <ele>256.4</ele>
        <time>2020-03-04T16:16:28Z</time>
      </trkpt>
      <trkpt lat="43.50686" lon="6.31249">
        <ele>256.4</ele>
        <time>2020-03-04T16:16:36Z</time>
      </trkpt>
      <trkpt lat="43.50679" lon="6.31257">
        <ele>256.4</ele>
        <time>2020-03-04T16:16:43Z</time>
      </trkpt>
      <trkpt lat="43.50673" lon="6.31269">
        <ele>256.1</ele>
        <time>2020-03-04T16:16:53Z</time>
      </trkpt>
      <trkpt lat="43.50667" lon="6.31279">
        <ele>256.1</ele>
        <time>2020-03-04T16:17:01Z</time>
      </trkpt>
      <trkpt lat="43.50662" lon="6.31289">
        <ele>256.4</ele>
        <time>2020-03-04T16:17:10Z</time>
      </trkpt>
      <trkpt lat="43.50656" lon="6.313">
        <ele>256.3</ele>
        <time>2020-03-04T16:17:17Z</time>
      </trkpt>
      <trkpt lat="43.5065" lon="6.31311">
        <ele>256.3</ele>
        <time>2020-03-04T16:17:24Z</time>
      </trkpt>
      <trkpt lat="43.50646" lon="6.31323">
        <ele>256.4</ele>
        <time>2020-03-04T16:17:32Z</time>
      </trkpt>
      <trkpt lat="43.50642" lon="6.31334">
        <ele>256.3</ele>
        <time>2020-03-04T16:17:38Z</time>
      </trkpt>
      <trkpt lat="43.5064" lon="6.31346">
        <ele>256.3</ele>
        <time>2020-03-04T16:17:46Z</time>
      </trkpt>
      <trkpt lat="43.5064" lon="6.3136">
        <ele>256.3</ele>
        <time>2020-03-04T16:17:54Z</time>
      </trkpt>
      <trkpt lat="43.50639" lon="6.31373">
        <ele>256.4</ele>
        <time>2020-03-04T16:18:02Z</time>
      </trkpt>
      <trkpt lat="43.50638" lon="6.31387">
        <ele>256.3</ele>
        <time>2020-03-04T16:18:11Z</time>
      </trkpt>
      <trkpt lat="43.50637" lon="6.31399">
        <ele>256.4</ele>
        <time>2020-03-04T16:18:21Z</time>
      </trkpt>
      <trkpt lat="43.50634" lon="6.31412">
        <ele>256.5</ele>
        <time>2020-03-04T16:18:34Z</time>
      </trkpt>
      <trkpt lat="43.50635" lon="6.31425">
        <ele>256.5</ele>
        <time>2020-03-04T16:18:44Z</time>
      </trkpt>
      <trkpt lat="43.50634" lon="6.31438">
        <ele>256.6</ele>
        <time>2020-03-04T16:18:53Z</time>
      </trkpt>
      <trkpt lat="43.50633" lon="6.3145">
        <ele>256.2</ele>
        <time>2020-03-04T16:19:07Z</time>
      </trkpt>
      <trkpt lat="43.50626" lon="6.31453">
        <ele>257</ele>
        <time>2020-03-04T16:20:36Z</time>
      </trkpt>
    </trkseg>
  </trk>
</gpx>